UAE1 OMDB-EGLL
Flight info
| Callsign | UAE1 |
|---|---|
| Flight time | 7h 49m |
| Altitude | 36000 |
| Route | SENPA N571 ALPOB L768 ULADA Q143 MEDGO N697 HIL A788 HLF L604 WEJ L677 RAGPU/N0497F380 L677 CVO L617 NOZ L551 ANTAR UN133 KPC DCT FSK DCT DISOR DCT LONTA UL608 DOLEV DCT BOSNA DCT MARIL DCT OKSIG DCT KUSIB DCT GORPA DCT DOL DCT NIPEL DCT MODSA/N0487F400 DCT BABEG DCT LIRSU DCT ARCKY DCT BUB L608 LOGAN |
| Aircraft | A388/J-SADE2E3FGHIJ3J4J5M1RWXY/LB1D1 |
Departure
| Time | 2026-04-30 06:55 |
|---|---|
| Airport | Dubai International Airport (OMDB) |
Arrival
| Time | 2026-04-30 14:44 |
|---|---|
| Airport | London Heathrow Airport (EGLL) |
| Time | Latitude | Longitude | Altitude | Speed | Heading |
|---|---|---|---|---|---|
| 2026-04-30 06:20 | 25.24312 | 55.37444 | 26 ft | 0 kts | 211° |
| 2026-04-30 06:38 | 25.24316 | 55.37447 | 26 ft | 1 kts | 214° |
| 2026-04-30 06:38 | 25.24321 | 55.37452 | 26 ft | 1 kts | 221° |
| 2026-04-30 06:38 | 25.24325 | 55.37458 | 25 ft | 1 kts | 228° |
| 2026-04-30 06:39 | 25.24329 | 55.37464 | 25 ft | 1 kts | 234° |
| 2026-04-30 06:39 | 25.24332 | 55.37471 | 26 ft | 1 kts | 240° |
| 2026-04-30 06:39 | 25.24335 | 55.37478 | 26 ft | 1 kts | 247° |
| 2026-04-30 06:39 | 25.24337 | 55.37485 | 25 ft | 1 kts | 253° |
| 2026-04-30 06:40 | 25.24338 | 55.37492 | 26 ft | 1 kts | 259° |
| 2026-04-30 06:40 | 25.24338 | 55.37500 | 25 ft | 1 kts | 266° |
| 2026-04-30 06:40 | 25.24338 | 55.37505 | 25 ft | 1 kts | 270° |
| 2026-04-30 06:40 | 25.24337 | 55.37515 | 26 ft | 2 kts | 277° |
| 2026-04-30 06:41 | 25.24334 | 55.37529 | 25 ft | 3 kts | 283° |
| 2026-04-30 06:41 | 25.24327 | 55.37548 | 24 ft | 3 kts | 304° |
| 2026-04-30 06:41 | 25.24325 | 55.37550 | 24 ft | 0 kts | 309° |
| 2026-04-30 06:44 | 25.24330 | 55.37544 | 24 ft | 2 kts | 310° |
| 2026-04-30 06:44 | 25.24341 | 55.37529 | 25 ft | 0 kts | 309° |
| 2026-04-30 06:46 | 25.24348 | 55.37521 | 25 ft | 3 kts | 327° |
| 2026-04-30 06:46 | 25.24372 | 55.37515 | 26 ft | 4 kts | 8° |
| 2026-04-30 06:46 | 25.24398 | 55.37539 | 27 ft | 8 kts | 60° |
| 2026-04-30 06:46 | 25.24411 | 55.37617 | 27 ft | 14 kts | 101° |
| 2026-04-30 06:47 | 25.24360 | 55.37732 | 28 ft | 19 kts | 121° |
| 2026-04-30 06:47 | 25.24284 | 55.37867 | 28 ft | 22 kts | 122° |
| 2026-04-30 06:47 | 25.24197 | 55.38022 | 28 ft | 25 kts | 122° |
| 2026-04-30 06:47 | 25.24101 | 55.38192 | 28 ft | 27 kts | 121° |
| 2026-04-30 06:48 | 25.24003 | 55.38370 | 28 ft | 28 kts | 122° |
| 2026-04-30 06:48 | 25.23904 | 55.38544 | 28 ft | 25 kts | 122° |
| 2026-04-30 06:48 | 25.23808 | 55.38715 | 28 ft | 27 kts | 122° |
| 2026-04-30 06:48 | 25.23706 | 55.38894 | 28 ft | 28 kts | 122° |
| 2026-04-30 06:49 | 25.23603 | 55.39077 | 28 ft | 25 kts | 122° |
| 2026-04-30 06:49 | 25.23510 | 55.39245 | 28 ft | 26 kts | 121° |
| 2026-04-30 06:49 | 25.23462 | 55.39329 | 28 ft | 1 kts | 123° |
| 2026-04-30 06:49 | 25.23447 | 55.39357 | 28 ft | 6 kts | 108° |
| 2026-04-30 06:50 | 25.23452 | 55.39415 | 29 ft | 3 kts | 54° |
| 2026-04-30 06:52 | 25.23474 | 55.39436 | 30 ft | 10 kts | 36° |
| 2026-04-30 06:53 | 25.23551 | 55.39490 | 36 ft | 11 kts | 10° |
| 2026-04-30 06:53 | 25.23604 | 55.39458 | 37 ft | 10 kts | 306° |
| 2026-04-30 06:53 | 25.23629 | 55.39418 | 38 ft | 0 kts | 302° |
| 2026-04-30 06:54 | 25.23660 | 55.39362 | 37 ft | 37 kts | 301° |
| 2026-04-30 06:54 | 25.23941 | 55.38840 | 35 ft | 117 kts | 301° |
| 2026-04-30 06:55 | 25.24463 | 55.37899 | 36 ft | 165 kts | 301° |
| 2026-04-30 06:55 | 25.25100 | 55.36736 | 384 ft | 174 kts | 302° |
| 2026-04-30 06:55 | 25.25784 | 55.35569 | 765 ft | 186 kts | 303° |
| 2026-04-30 06:55 | 25.26534 | 55.34358 | 929 ft | 202 kts | 306° |
| 2026-04-30 06:56 | 25.27360 | 55.33047 | 1293 ft | 210 kts | 306° |
| 2026-04-30 06:56 | 25.28187 | 55.31718 | 2298 ft | 207 kts | 306° |
| 2026-04-30 06:56 | 25.28978 | 55.30414 | 3476 ft | 203 kts | 305° |
| 2026-04-30 06:56 | 25.29581 | 55.28956 | 4443 ft | 216 kts | 289° |
| 2026-04-30 06:57 | 25.29787 | 55.27305 | 5203 ft | 220 kts | 276° |
| 2026-04-30 06:57 | 25.29880 | 55.25611 | 5849 ft | 219 kts | 276° |
| 2026-04-30 06:57 | 25.29991 | 55.23986 | 6657 ft | 206 kts | 275° |
| 2026-04-30 06:57 | 25.30110 | 55.22417 | 6964 ft | 209 kts | 275° |
| 2026-04-30 06:58 | 25.30242 | 55.20734 | 7092 ft | 230 kts | 275° |
| 2026-04-30 06:58 | 25.30385 | 55.18908 | 7378 ft | 245 kts | 273° |
| 2026-04-30 06:58 | 25.30331 | 55.17036 | 8061 ft | 243 kts | 263° |
| 2026-04-30 06:58 | 25.30160 | 55.15120 | 8367 ft | 260 kts | 264° |
| 2026-04-30 06:59 | 25.29995 | 55.13057 | 8673 ft | 275 kts | 264° |
| 2026-04-30 06:59 | 25.29836 | 55.10948 | 9308 ft | 276 kts | 264° |
| 2026-04-30 06:59 | 25.29678 | 55.08837 | 9981 ft | 276 kts | 263° |
| 2026-04-30 06:59 | 25.29515 | 55.06698 | 10328 ft | 288 kts | 263° |
| 2026-04-30 07:00 | 25.29339 | 55.04427 | 10471 ft | 305 kts | 263° |
| 2026-04-30 07:00 | 25.29153 | 55.02034 | 10623 ft | 321 kts | 263° |
| 2026-04-30 07:00 | 25.28960 | 54.99542 | 10990 ft | 328 kts | 264° |
| 2026-04-30 07:00 | 25.28766 | 54.97018 | 11564 ft | 329 kts | 264° |
| 2026-04-30 07:01 | 25.28574 | 54.94528 | 12119 ft | 331 kts | 264° |
| 2026-04-30 07:01 | 25.28439 | 54.91988 | 12684 ft | 333 kts | 266° |
| 2026-04-30 07:01 | 25.28382 | 54.89418 | 13260 ft | 335 kts | 268° |
| 2026-04-30 07:01 | 25.28336 | 54.86830 | 13818 ft | 337 kts | 268° |
| 2026-04-30 07:02 | 25.28281 | 54.84242 | 14327 ft | 339 kts | 267° |
| 2026-04-30 07:02 | 25.28215 | 54.81592 | 14841 ft | 341 kts | 267° |
| 2026-04-30 07:02 | 25.28142 | 54.79004 | 15336 ft | 343 kts | 267° |
| 2026-04-30 07:02 | 25.28104 | 54.76358 | 15822 ft | 346 kts | 270° |
| 2026-04-30 07:03 | 25.28344 | 54.73702 | 16329 ft | 350 kts | 277° |
| 2026-04-30 07:03 | 25.28898 | 54.71065 | 16814 ft | 354 kts | 283° |
| 2026-04-30 07:03 | 25.29588 | 54.68446 | 17286 ft | 356 kts | 283° |
| 2026-04-30 07:03 | 25.30264 | 54.65799 | 17762 ft | 359 kts | 283° |
| 2026-04-30 07:04 | 25.30935 | 54.63139 | 18217 ft | 361 kts | 282° |
| 2026-04-30 07:04 | 25.31610 | 54.60450 | 18632 ft | 363 kts | 282° |
| 2026-04-30 07:04 | 25.32287 | 54.57761 | 19065 ft | 364 kts | 282° |
| 2026-04-30 07:04 | 25.32967 | 54.55055 | 19481 ft | 366 kts | 282° |
| 2026-04-30 07:05 | 25.34376 | 54.49631 | 20310 ft | 369 kts | 283° |
| 2026-04-30 07:05 | 25.35121 | 54.46914 | 20720 ft | 370 kts | 283° |
| 2026-04-30 07:05 | 25.35869 | 54.44184 | 21113 ft | 372 kts | 283° |
| 2026-04-30 07:06 | 25.36607 | 54.41478 | 21506 ft | 373 kts | 282° |
| 2026-04-30 07:06 | 25.37357 | 54.38706 | 21915 ft | 374 kts | 282° |
| 2026-04-30 07:06 | 25.38100 | 54.35956 | 22297 ft | 376 kts | 282° |
| 2026-04-30 07:06 | 25.38857 | 54.33143 | 22698 ft | 377 kts | 282° |
| 2026-04-30 07:07 | 25.39596 | 54.30397 | 23085 ft | 379 kts | 282° |
| 2026-04-30 07:07 | 25.40348 | 54.27599 | 23460 ft | 380 kts | 282° |
| 2026-04-30 07:07 | 25.41075 | 54.24782 | 23765 ft | 381 kts | 281° |
| 2026-04-30 07:07 | 25.41774 | 54.21947 | 24051 ft | 383 kts | 281° |
| 2026-04-30 07:08 | 25.42470 | 54.19099 | 24329 ft | 385 kts | 281° |
| 2026-04-30 07:08 | 25.43174 | 54.16233 | 24632 ft | 387 kts | 281° |
| 2026-04-30 07:08 | 25.43885 | 54.13355 | 24923 ft | 389 kts | 281° |
| 2026-04-30 07:08 | 25.44603 | 54.10458 | 25203 ft | 391 kts | 281° |
| 2026-04-30 07:09 | 25.45316 | 54.07551 | 25502 ft | 393 kts | 280° |
| 2026-04-30 07:09 | 25.46023 | 54.04616 | 25791 ft | 395 kts | 280° |
| 2026-04-30 07:09 | 25.46730 | 54.01663 | 26087 ft | 397 kts | 280° |
| 2026-04-30 07:09 | 25.47439 | 53.98704 | 26388 ft | 399 kts | 280° |
| 2026-04-30 07:10 | 25.48150 | 53.95740 | 26690 ft | 401 kts | 280° |
| 2026-04-30 07:10 | 25.48869 | 53.92741 | 26996 ft | 403 kts | 280° |
| 2026-04-30 07:10 | 25.49588 | 53.89746 | 27290 ft | 405 kts | 280° |
| 2026-04-30 07:10 | 25.50315 | 53.86713 | 27615 ft | 407 kts | 280° |
| 2026-04-30 07:11 | 25.51033 | 53.83716 | 27936 ft | 410 kts | 280° |
| 2026-04-30 07:11 | 25.51774 | 53.80620 | 28262 ft | 412 kts | 280° |
| 2026-04-30 07:11 | 25.52500 | 53.77581 | 28601 ft | 414 kts | 280° |
| 2026-04-30 07:11 | 25.53237 | 53.74495 | 28948 ft | 416 kts | 279° |
| 2026-04-30 07:12 | 25.53982 | 53.71384 | 29292 ft | 419 kts | 279° |
| 2026-04-30 07:12 | 25.54729 | 53.68261 | 29632 ft | 421 kts | 279° |
| 2026-04-30 07:12 | 25.55483 | 53.65112 | 29973 ft | 424 kts | 279° |
| 2026-04-30 07:12 | 25.56237 | 53.61957 | 30288 ft | 426 kts | 279° |
| 2026-04-30 07:13 | 25.56997 | 53.58772 | 30592 ft | 428 kts | 279° |
| 2026-04-30 07:13 | 25.57760 | 53.55575 | 30918 ft | 430 kts | 279° |
| 2026-04-30 07:13 | 25.58523 | 53.52371 | 31215 ft | 433 kts | 279° |
| 2026-04-30 07:13 | 25.59292 | 53.49136 | 31525 ft | 435 kts | 279° |
| 2026-04-30 07:14 | 25.60066 | 53.45881 | 31832 ft | 437 kts | 279° |
| 2026-04-30 07:14 | 25.60841 | 53.42613 | 32132 ft | 440 kts | 279° |
| 2026-04-30 07:14 | 25.61621 | 53.39326 | 32443 ft | 442 kts | 279° |
| 2026-04-30 07:14 | 25.62394 | 53.36053 | 32735 ft | 444 kts | 279° |
| 2026-04-30 07:15 | 25.63189 | 53.32687 | 33048 ft | 447 kts | 279° |
| 2026-04-30 07:15 | 25.63976 | 53.29345 | 33340 ft | 449 kts | 279° |
| 2026-04-30 07:15 | 25.64766 | 53.25989 | 33641 ft | 452 kts | 279° |
| 2026-04-30 07:15 | 25.65563 | 53.22603 | 33915 ft | 454 kts | 279° |
| 2026-04-30 07:16 | 25.66362 | 53.19205 | 34176 ft | 456 kts | 279° |
| 2026-04-30 07:16 | 25.67166 | 53.15781 | 34481 ft | 457 kts | 279° |
| 2026-04-30 07:16 | 25.67966 | 53.12372 | 34840 ft | 457 kts | 279° |
| 2026-04-30 07:16 | 25.68742 | 53.09062 | 35209 ft | 456 kts | 279° |
| 2026-04-30 07:17 | 25.69557 | 53.05600 | 35614 ft | 455 kts | 281° |
| 2026-04-30 07:17 | 25.70521 | 53.02244 | 35847 ft | 459 kts | 285° |
| 2026-04-30 07:18 | 25.74747 | 52.92586 | 35881 ft | 468 kts | 292° |
| 2026-04-30 07:18 | 25.77775 | 52.86178 | 35878 ft | 467 kts | 291° |
| 2026-04-30 07:19 | 25.80783 | 52.79789 | 35880 ft | 467 kts | 291° |
| 2026-04-30 07:19 | 25.83324 | 52.74392 | 35885 ft | 467 kts | 291° |
| 2026-04-30 07:20 | 25.86826 | 52.66945 | 35886 ft | 467 kts | 291° |
| 2026-04-30 07:20 | 25.89319 | 52.61638 | 35889 ft | 467 kts | 291° |
| 2026-04-30 07:21 | 25.92246 | 52.55193 | 35884 ft | 465 kts | 290° |
| 2026-04-30 07:21 | 25.95098 | 52.48647 | 35885 ft | 465 kts | 290° |
| 2026-04-30 07:22 | 25.99359 | 52.38939 | 35883 ft | 465 kts | 290° |
| 2026-04-30 07:22 | 26.02240 | 52.32486 | 35886 ft | 465 kts | 290° |
| 2026-04-30 07:23 | 26.05120 | 52.26048 | 35887 ft | 465 kts | 290° |
| 2026-04-30 07:23 | 26.07995 | 52.19600 | 35889 ft | 465 kts | 290° |
| 2026-04-30 07:24 | 26.10867 | 52.13143 | 35887 ft | 465 kts | 290° |
| 2026-04-30 07:24 | 26.13732 | 52.06690 | 35888 ft | 465 kts | 290° |
| 2026-04-30 07:25 | 26.16590 | 52.00245 | 35886 ft | 464 kts | 290° |
| 2026-04-30 07:25 | 26.19473 | 51.93819 | 35891 ft | 464 kts | 291° |
| 2026-04-30 07:26 | 26.22341 | 51.87381 | 35892 ft | 463 kts | 290° |
| 2026-04-30 07:26 | 26.25188 | 51.80894 | 35893 ft | 463 kts | 290° |
| 2026-04-30 07:27 | 26.28038 | 51.74474 | 35899 ft | 462 kts | 290° |
| 2026-04-30 07:27 | 26.30909 | 51.68047 | 35896 ft | 462 kts | 290° |
| 2026-04-30 07:28 | 26.33750 | 51.61672 | 35901 ft | 461 kts | 290° |
| 2026-04-30 07:28 | 26.36620 | 51.55233 | 35897 ft | 460 kts | 290° |
| 2026-04-30 07:29 | 26.39050 | 51.48705 | 35895 ft | 453 kts | 283° |
| 2026-04-30 07:29 | 26.41153 | 51.42075 | 35896 ft | 453 kts | 284° |
| 2026-04-30 07:30 | 26.44335 | 51.32140 | 35900 ft | 453 kts | 284° |
| 2026-04-30 07:31 | 26.46451 | 51.25522 | 35899 ft | 453 kts | 284° |
| 2026-04-30 07:31 | 26.48565 | 51.18898 | 35896 ft | 452 kts | 283° |
| 2026-04-30 07:32 | 26.50671 | 51.12286 | 35904 ft | 452 kts | 283° |
| 2026-04-30 07:32 | 26.52762 | 51.05707 | 35906 ft | 452 kts | 283° |
| 2026-04-30 07:33 | 26.54873 | 50.99052 | 35912 ft | 451 kts | 283° |
| 2026-04-30 07:33 | 26.56993 | 50.92359 | 35915 ft | 451 kts | 283° |
| 2026-04-30 07:34 | 26.59045 | 50.85799 | 35911 ft | 450 kts | 283° |
| 2026-04-30 07:34 | 26.61085 | 50.79195 | 35910 ft | 450 kts | 283° |
| 2026-04-30 07:35 | 26.63126 | 50.72591 | 35917 ft | 449 kts | 283° |
| 2026-04-30 07:35 | 26.65149 | 50.66000 | 35922 ft | 447 kts | 282° |
| 2026-04-30 07:36 | 26.67095 | 50.59407 | 35928 ft | 446 kts | 282° |
| 2026-04-30 07:36 | 26.69039 | 50.52807 | 35922 ft | 446 kts | 282° |
| 2026-04-30 07:37 | 26.70965 | 50.46217 | 35922 ft | 444 kts | 281° |
| 2026-04-30 07:37 | 26.72651 | 50.39588 | 35919 ft | 442 kts | 279° |
| 2026-04-30 07:38 | 26.74315 | 50.32967 | 35921 ft | 442 kts | 279° |
| 2026-04-30 07:38 | 26.75521 | 50.26279 | 35919 ft | 435 kts | 271° |
| 2026-04-30 07:39 | 26.75822 | 50.19570 | 35925 ft | 431 kts | 266° |
| 2026-04-30 07:39 | 26.75884 | 50.12843 | 35926 ft | 431 kts | 266° |
| 2026-04-30 07:40 | 26.75955 | 50.06229 | 35930 ft | 431 kts | 266° |
| 2026-04-30 07:40 | 26.76020 | 49.99359 | 35924 ft | 432 kts | 266° |
| 2026-04-30 07:41 | 26.76076 | 49.92697 | 35924 ft | 432 kts | 266° |
| 2026-04-30 07:41 | 26.76129 | 49.85935 | 35921 ft | 432 kts | 266° |
| 2026-04-30 07:42 | 26.76178 | 49.79254 | 35922 ft | 432 kts | 266° |
| 2026-04-30 07:42 | 26.76224 | 49.72543 | 35918 ft | 431 kts | 266° |
| 2026-04-30 07:43 | 26.76266 | 49.65838 | 35920 ft | 431 kts | 266° |
| 2026-04-30 07:43 | 26.76306 | 49.59141 | 35919 ft | 431 kts | 266° |
| 2026-04-30 07:44 | 26.76344 | 49.52438 | 35918 ft | 430 kts | 266° |
| 2026-04-30 07:44 | 26.76381 | 49.45751 | 35926 ft | 430 kts | 266° |
| 2026-04-30 07:45 | 26.76415 | 49.39070 | 35926 ft | 429 kts | 266° |
| 2026-04-30 07:45 | 26.76443 | 49.32449 | 35929 ft | 428 kts | 266° |
| 2026-04-30 07:46 | 26.76468 | 49.25785 | 35933 ft | 428 kts | 266° |
| 2026-04-30 07:46 | 26.76490 | 49.19105 | 35927 ft | 428 kts | 266° |
| 2026-04-30 07:47 | 26.76509 | 49.12450 | 35930 ft | 428 kts | 266° |
| 2026-04-30 07:47 | 26.76525 | 49.05805 | 35931 ft | 427 kts | 266° |
| 2026-04-30 07:48 | 26.76538 | 48.99156 | 35935 ft | 427 kts | 266° |
| 2026-04-30 07:48 | 26.76547 | 48.92510 | 35942 ft | 427 kts | 266° |
| 2026-04-30 07:49 | 26.76553 | 48.86988 | 35947 ft | 427 kts | 266° |
| 2026-04-30 07:49 | 26.76557 | 48.80338 | 35955 ft | 427 kts | 266° |
| 2026-04-30 07:50 | 26.76558 | 48.73695 | 35960 ft | 427 kts | 266° |
| 2026-04-30 07:50 | 26.76524 | 48.67068 | 35962 ft | 426 kts | 265° |
| 2026-04-30 07:51 | 26.76326 | 48.60447 | 35965 ft | 425 kts | 264° |
| 2026-04-30 07:51 | 26.76129 | 48.53840 | 35969 ft | 425 kts | 264° |
| 2026-04-30 07:52 | 26.75948 | 48.47234 | 35974 ft | 425 kts | 264° |
| 2026-04-30 07:52 | 26.75768 | 48.40613 | 35981 ft | 425 kts | 264° |
| 2026-04-30 07:53 | 26.75585 | 48.34020 | 35983 ft | 424 kts | 264° |
| 2026-04-30 07:53 | 26.75401 | 48.27415 | 35982 ft | 424 kts | 264° |
| 2026-04-30 07:54 | 26.75217 | 48.20867 | 35991 ft | 424 kts | 264° |
| 2026-04-30 07:54 | 26.75027 | 48.14239 | 35991 ft | 423 kts | 264° |
| 2026-04-30 07:55 | 26.74835 | 48.07650 | 35991 ft | 423 kts | 264° |
| 2026-04-30 07:55 | 26.74639 | 48.01073 | 35998 ft | 423 kts | 264° |
| 2026-04-30 07:56 | 26.74443 | 47.94536 | 35999 ft | 423 kts | 264° |
| 2026-04-30 07:56 | 26.74283 | 47.87951 | 36001 ft | 424 kts | 267° |
| 2026-04-30 07:57 | 26.74605 | 47.81347 | 36007 ft | 426 kts | 269° |
| 2026-04-30 07:57 | 26.74941 | 47.74734 | 36016 ft | 425 kts | 269° |
| 2026-04-30 07:58 | 26.75269 | 47.68130 | 36014 ft | 425 kts | 269° |
| 2026-04-30 07:58 | 26.75595 | 47.61534 | 36014 ft | 425 kts | 269° |
| 2026-04-30 07:59 | 26.75918 | 47.54932 | 36016 ft | 425 kts | 269° |
| 2026-04-30 07:59 | 26.76239 | 47.48327 | 36019 ft | 425 kts | 269° |
| 2026-04-30 08:00 | 26.76736 | 47.38441 | 36017 ft | 425 kts | 271° |
| 2026-04-30 08:00 | 26.77653 | 47.31821 | 36018 ft | 428 kts | 275° |
| 2026-04-30 08:01 | 26.78673 | 47.25254 | 36022 ft | 428 kts | 274° |
| 2026-04-30 08:01 | 26.79678 | 47.18701 | 36027 ft | 427 kts | 274° |
| 2026-04-30 08:02 | 26.81179 | 47.08897 | 36028 ft | 427 kts | 274° |
| 2026-04-30 08:03 | 26.83179 | 46.95773 | 36004 ft | 426 kts | 274° |
| 2026-04-30 08:04 | 26.84171 | 46.89231 | 36004 ft | 426 kts | 274° |
| 2026-04-30 08:04 | 26.85159 | 46.82693 | 36006 ft | 426 kts | 274° |
| 2026-04-30 08:05 | 26.86144 | 46.76157 | 36005 ft | 426 kts | 274° |
| 2026-04-30 08:05 | 26.87126 | 46.69623 | 36007 ft | 425 kts | 274° |
| 2026-04-30 08:06 | 26.88105 | 46.63085 | 36008 ft | 425 kts | 274° |
| 2026-04-30 08:06 | 26.89078 | 46.56560 | 36011 ft | 425 kts | 274° |
| 2026-04-30 08:07 | 26.90049 | 46.50032 | 36010 ft | 424 kts | 274° |
| 2026-04-30 08:07 | 26.91016 | 46.43510 | 36012 ft | 424 kts | 274° |
| 2026-04-30 08:08 | 26.91973 | 46.37043 | 36013 ft | 424 kts | 274° |
| 2026-04-30 08:08 | 26.92939 | 46.30524 | 36014 ft | 424 kts | 274° |
| 2026-04-30 08:09 | 26.93901 | 46.24016 | 36010 ft | 423 kts | 274° |
| 2026-04-30 08:09 | 26.94860 | 46.17503 | 36013 ft | 423 kts | 274° |
| 2026-04-30 08:10 | 26.95814 | 46.11006 | 36011 ft | 423 kts | 274° |
| 2026-04-30 08:10 | 26.96766 | 46.04497 | 36013 ft | 423 kts | 274° |
| 2026-04-30 08:11 | 26.97714 | 45.97996 | 36022 ft | 422 kts | 274° |
| 2026-04-30 08:11 | 26.98658 | 45.91500 | 36009 ft | 422 kts | 274° |
| 2026-04-30 08:12 | 26.99598 | 45.85011 | 36014 ft | 422 kts | 274° |
| 2026-04-30 08:12 | 27.00535 | 45.78516 | 36017 ft | 422 kts | 274° |
| 2026-04-30 08:13 | 27.01467 | 45.72037 | 36012 ft | 421 kts | 274° |
| 2026-04-30 08:13 | 27.02398 | 45.65541 | 36014 ft | 421 kts | 274° |
| 2026-04-30 08:14 | 27.03324 | 45.59061 | 36013 ft | 421 kts | 274° |
| 2026-04-30 08:14 | 27.04248 | 45.52577 | 36013 ft | 421 kts | 274° |
| 2026-04-30 08:15 | 27.05169 | 45.46099 | 36013 ft | 421 kts | 274° |
| 2026-04-30 08:15 | 27.06001 | 45.39611 | 36015 ft | 419 kts | 272° |
| 2026-04-30 08:16 | 27.06690 | 45.33122 | 36011 ft | 419 kts | 272° |
| 2026-04-30 08:16 | 27.07397 | 45.26633 | 36010 ft | 419 kts | 272° |
| 2026-04-30 08:17 | 27.08116 | 45.20148 | 36014 ft | 419 kts | 272° |
| 2026-04-30 08:17 | 27.08834 | 45.13667 | 36015 ft | 419 kts | 272° |
| 2026-04-30 08:18 | 27.09549 | 45.07187 | 36018 ft | 418 kts | 272° |
| 2026-04-30 08:18 | 27.10261 | 45.00699 | 36016 ft | 418 kts | 272° |
| 2026-04-30 08:19 | 27.10968 | 44.94223 | 36014 ft | 418 kts | 272° |
| 2026-04-30 08:19 | 27.11672 | 44.87748 | 36009 ft | 418 kts | 272° |
| 2026-04-30 08:20 | 27.12373 | 44.81283 | 36006 ft | 417 kts | 272° |
| 2026-04-30 08:20 | 27.13070 | 44.74814 | 36010 ft | 417 kts | 272° |
| 2026-04-30 08:21 | 27.13765 | 44.68351 | 36008 ft | 417 kts | 272° |
| 2026-04-30 08:21 | 27.14453 | 44.61927 | 36011 ft | 417 kts | 272° |
| 2026-04-30 08:22 | 27.15142 | 44.55461 | 36008 ft | 417 kts | 272° |
| 2026-04-30 08:22 | 27.15827 | 44.49010 | 36008 ft | 417 kts | 272° |
| 2026-04-30 08:23 | 27.16511 | 44.42539 | 36016 ft | 416 kts | 272° |
| 2026-04-30 08:23 | 27.17190 | 44.36086 | 36018 ft | 416 kts | 272° |
| 2026-04-30 08:24 | 27.17859 | 44.29638 | 36015 ft | 416 kts | 272° |
| 2026-04-30 08:24 | 27.18525 | 44.23183 | 36006 ft | 416 kts | 272° |
| 2026-04-30 08:25 | 27.19188 | 44.16747 | 36026 ft | 415 kts | 272° |
| 2026-04-30 08:25 | 27.19849 | 44.10287 | 36011 ft | 416 kts | 272° |
| 2026-04-30 08:26 | 27.20507 | 44.03841 | 36017 ft | 416 kts | 272° |
| 2026-04-30 08:26 | 27.21162 | 43.97387 | 36015 ft | 416 kts | 272° |
| 2026-04-30 08:27 | 27.21813 | 43.90937 | 36016 ft | 416 kts | 272° |
| 2026-04-30 08:27 | 27.22462 | 43.84484 | 36024 ft | 416 kts | 272° |
| 2026-04-30 08:28 | 27.23108 | 43.78030 | 36023 ft | 416 kts | 272° |
| 2026-04-30 08:28 | 27.23752 | 43.71573 | 36020 ft | 416 kts | 272° |
| 2026-04-30 08:29 | 27.24392 | 43.65122 | 36025 ft | 415 kts | 272° |
| 2026-04-30 08:29 | 27.25030 | 43.58676 | 36022 ft | 415 kts | 272° |
| 2026-04-30 08:30 | 27.25666 | 43.52224 | 36028 ft | 415 kts | 272° |
| 2026-04-30 08:30 | 27.26300 | 43.45767 | 36025 ft | 415 kts | 272° |
| 2026-04-30 08:31 | 27.26929 | 43.39320 | 36032 ft | 415 kts | 272° |
| 2026-04-30 08:31 | 27.27556 | 43.32863 | 36033 ft | 415 kts | 272° |
| 2026-04-30 08:32 | 27.28074 | 43.27499 | 36032 ft | 415 kts | 272° |
| 2026-04-30 08:32 | 27.28695 | 43.21044 | 36033 ft | 415 kts | 272° |
| 2026-04-30 08:33 | 27.29418 | 43.13495 | 36038 ft | 416 kts | 272° |
| 2026-04-30 08:33 | 27.29930 | 43.08123 | 36040 ft | 416 kts | 272° |
| 2026-04-30 08:34 | 27.30542 | 43.01665 | 36053 ft | 416 kts | 272° |
| 2026-04-30 08:34 | 27.31152 | 42.95199 | 36054 ft | 416 kts | 272° |
| 2026-04-30 08:35 | 27.31760 | 42.88730 | 36055 ft | 416 kts | 272° |
| 2026-04-30 08:35 | 27.32364 | 42.82260 | 36057 ft | 416 kts | 272° |
| 2026-04-30 08:36 | 27.32966 | 42.75790 | 36054 ft | 416 kts | 272° |
| 2026-04-30 08:36 | 27.33565 | 42.69312 | 36055 ft | 416 kts | 272° |
| 2026-04-30 08:37 | 27.34160 | 42.62840 | 36056 ft | 416 kts | 272° |
| 2026-04-30 08:37 | 27.34753 | 42.56364 | 36060 ft | 416 kts | 272° |
| 2026-04-30 08:38 | 27.35343 | 42.49886 | 36063 ft | 416 kts | 272° |
| 2026-04-30 08:38 | 27.35931 | 42.43402 | 36066 ft | 417 kts | 272° |
| 2026-04-30 08:39 | 27.36515 | 42.36923 | 36066 ft | 417 kts | 272° |
| 2026-04-30 08:39 | 27.37096 | 42.30429 | 36063 ft | 417 kts | 272° |
| 2026-04-30 08:40 | 27.37674 | 42.23946 | 36068 ft | 417 kts | 272° |
| 2026-04-30 08:40 | 27.38248 | 42.17462 | 36071 ft | 417 kts | 272° |
| 2026-04-30 08:41 | 27.38821 | 42.10969 | 36072 ft | 417 kts | 272° |
| 2026-04-30 08:41 | 27.39390 | 42.04481 | 36078 ft | 417 kts | 272° |
| 2026-04-30 08:42 | 27.39956 | 41.97988 | 36087 ft | 417 kts | 272° |
| 2026-04-30 08:42 | 27.40517 | 41.91508 | 36091 ft | 417 kts | 272° |
| 2026-04-30 08:43 | 27.41079 | 41.85008 | 36099 ft | 417 kts | 272° |
| 2026-04-30 08:43 | 27.41637 | 41.78510 | 36103 ft | 417 kts | 272° |
| 2026-04-30 08:44 | 27.41944 | 41.72013 | 36102 ft | 414 kts | 265° |
| 2026-04-30 08:44 | 27.41064 | 41.65631 | 36104 ft | 413 kts | 255° |
| 2026-04-30 08:45 | 27.39019 | 41.59590 | 36101 ft | 414 kts | 247° |
| 2026-04-30 08:45 | 27.36650 | 41.53678 | 36093 ft | 414 kts | 248° |
| 2026-04-30 08:46 | 27.34293 | 41.47759 | 36091 ft | 414 kts | 248° |
| 2026-04-30 08:46 | 27.31929 | 41.41851 | 36085 ft | 415 kts | 248° |
| 2026-04-30 08:47 | 27.29554 | 41.35932 | 36080 ft | 415 kts | 248° |
| 2026-04-30 08:47 | 27.27177 | 41.30018 | 36069 ft | 415 kts | 248° |
| 2026-04-30 08:48 | 27.24815 | 41.24151 | 36066 ft | 415 kts | 248° |
| 2026-04-30 08:48 | 27.22432 | 41.18239 | 36061 ft | 415 kts | 248° |
| 2026-04-30 08:49 | 27.20035 | 41.12301 | 36059 ft | 415 kts | 248° |
| 2026-04-30 08:49 | 27.17652 | 41.06408 | 36061 ft | 415 kts | 248° |
| 2026-04-30 08:50 | 27.15272 | 41.00530 | 36056 ft | 415 kts | 248° |
| 2026-04-30 08:50 | 27.12862 | 40.94590 | 36054 ft | 415 kts | 248° |
| 2026-04-30 08:51 | 27.10482 | 40.88728 | 36050 ft | 415 kts | 248° |
| 2026-04-30 08:51 | 27.08068 | 40.82788 | 36051 ft | 415 kts | 248° |
| 2026-04-30 08:52 | 27.05685 | 40.76937 | 36048 ft | 415 kts | 248° |
| 2026-04-30 08:52 | 27.03281 | 40.71044 | 36047 ft | 415 kts | 248° |
| 2026-04-30 08:53 | 27.00877 | 40.65156 | 36041 ft | 415 kts | 248° |
| 2026-04-30 08:53 | 26.98471 | 40.59274 | 36040 ft | 415 kts | 248° |
| 2026-04-30 08:54 | 26.96060 | 40.53389 | 36037 ft | 415 kts | 248° |
| 2026-04-30 08:54 | 26.93645 | 40.47501 | 36033 ft | 416 kts | 248° |
| 2026-04-30 08:55 | 26.91227 | 40.41614 | 36034 ft | 416 kts | 248° |
| 2026-04-30 08:55 | 26.88806 | 40.35731 | 36030 ft | 416 kts | 248° |
| 2026-04-30 08:56 | 26.86384 | 40.29853 | 36030 ft | 416 kts | 248° |
| 2026-04-30 08:56 | 26.83960 | 40.23975 | 36028 ft | 416 kts | 248° |
| 2026-04-30 08:57 | 26.81528 | 40.18090 | 36026 ft | 416 kts | 248° |
| 2026-04-30 08:57 | 26.79096 | 40.12211 | 36025 ft | 416 kts | 248° |
| 2026-04-30 08:58 | 26.76674 | 40.06368 | 36026 ft | 417 kts | 248° |
| 2026-04-30 08:58 | 26.74218 | 40.00448 | 36029 ft | 417 kts | 248° |
| 2026-04-30 08:59 | 26.71791 | 39.94606 | 36031 ft | 417 kts | 248° |
| 2026-04-30 08:59 | 26.69343 | 39.88723 | 36025 ft | 417 kts | 248° |
| 2026-04-30 09:00 | 26.66894 | 39.82847 | 36028 ft | 417 kts | 248° |
| 2026-04-30 09:00 | 26.64441 | 39.76969 | 36028 ft | 417 kts | 248° |
| 2026-04-30 09:01 | 26.61985 | 39.71092 | 36024 ft | 417 kts | 248° |
| 2026-04-30 09:01 | 26.59529 | 39.65221 | 36027 ft | 417 kts | 248° |
| 2026-04-30 09:02 | 26.55840 | 39.56423 | 36019 ft | 417 kts | 248° |
| 2026-04-30 09:02 | 26.53378 | 39.50559 | 36020 ft | 417 kts | 248° |
| 2026-04-30 09:03 | 26.50910 | 39.44691 | 36018 ft | 417 kts | 248° |
| 2026-04-30 09:03 | 26.48445 | 39.38839 | 36020 ft | 417 kts | 248° |
| 2026-04-30 09:04 | 26.45973 | 39.32968 | 36014 ft | 417 kts | 249° |
| 2026-04-30 09:04 | 26.44003 | 39.26909 | 36014 ft | 414 kts | 256° |
| 2026-04-30 09:05 | 26.42897 | 39.20612 | 36015 ft | 414 kts | 263° |
| 2026-04-30 09:05 | 26.42379 | 39.14221 | 36017 ft | 414 kts | 264° |
| 2026-04-30 09:06 | 26.41849 | 39.07821 | 36019 ft | 414 kts | 264° |
| 2026-04-30 09:06 | 26.41313 | 39.01421 | 36016 ft | 415 kts | 264° |
| 2026-04-30 09:07 | 26.40775 | 38.95022 | 36013 ft | 415 kts | 264° |
| 2026-04-30 09:07 | 26.40235 | 38.88615 | 36012 ft | 415 kts | 264° |
| 2026-04-30 09:08 | 26.39692 | 38.82209 | 36017 ft | 415 kts | 264° |
| 2026-04-30 09:08 | 26.39147 | 38.75809 | 36007 ft | 415 kts | 264° |
| 2026-04-30 09:09 | 26.38598 | 38.69397 | 36020 ft | 415 kts | 264° |
| 2026-04-30 09:09 | 26.38047 | 38.62998 | 36016 ft | 415 kts | 264° |
| 2026-04-30 09:10 | 26.37493 | 38.56593 | 36020 ft | 415 kts | 264° |
| 2026-04-30 09:10 | 26.36936 | 38.50190 | 36016 ft | 415 kts | 264° |
| 2026-04-30 09:11 | 26.36374 | 38.43766 | 36011 ft | 415 kts | 264° |
| 2026-04-30 09:11 | 26.35811 | 38.37357 | 35990 ft | 415 kts | 264° |
| 2026-04-30 09:12 | 26.35246 | 38.30956 | 35997 ft | 415 kts | 264° |
| 2026-04-30 09:12 | 26.34678 | 38.24565 | 35996 ft | 415 kts | 264° |
| 2026-04-30 09:13 | 26.34105 | 38.18158 | 35994 ft | 414 kts | 264° |
| 2026-04-30 09:13 | 26.33531 | 38.11770 | 35998 ft | 414 kts | 264° |
| 2026-04-30 09:14 | 26.32954 | 38.05399 | 35980 ft | 414 kts | 264° |
| 2026-04-30 09:14 | 26.32375 | 37.99018 | 35968 ft | 414 kts | 264° |
| 2026-04-30 09:15 | 26.31890 | 37.93704 | 35975 ft | 414 kts | 264° |
| 2026-04-30 09:15 | 26.31305 | 37.87317 | 35967 ft | 415 kts | 264° |
| 2026-04-30 09:16 | 26.30715 | 37.80920 | 35969 ft | 415 kts | 264° |
| 2026-04-30 09:16 | 26.30123 | 37.74523 | 35979 ft | 415 kts | 264° |
| 2026-04-30 09:17 | 26.29530 | 37.68133 | 35979 ft | 415 kts | 264° |
| 2026-04-30 09:17 | 26.28934 | 37.61730 | 35981 ft | 415 kts | 264° |
| 2026-04-30 09:18 | 26.28337 | 37.55338 | 35960 ft | 415 kts | 264° |
| 2026-04-30 09:18 | 26.27734 | 37.48943 | 35983 ft | 416 kts | 264° |
| 2026-04-30 09:19 | 26.27128 | 37.42533 | 35982 ft | 416 kts | 264° |
| 2026-04-30 09:19 | 26.26521 | 37.36129 | 35975 ft | 415 kts | 264° |
| 2026-04-30 09:20 | 26.25911 | 37.29745 | 35966 ft | 415 kts | 264° |
| 2026-04-30 09:20 | 26.25300 | 37.23365 | 35954 ft | 414 kts | 264° |
| 2026-04-30 09:21 | 26.24684 | 37.16976 | 35967 ft | 415 kts | 264° |
| 2026-04-30 09:21 | 26.24065 | 37.10595 | 35947 ft | 415 kts | 264° |
| 2026-04-30 09:22 | 26.23443 | 37.04207 | 35942 ft | 415 kts | 264° |
| 2026-04-30 09:22 | 26.22820 | 36.97845 | 35934 ft | 414 kts | 264° |
| 2026-04-30 09:23 | 26.22196 | 36.91469 | 35937 ft | 414 kts | 264° |
| 2026-04-30 09:23 | 26.21568 | 36.85100 | 35930 ft | 414 kts | 264° |
| 2026-04-30 09:24 | 26.20938 | 36.78747 | 35947 ft | 414 kts | 264° |
| 2026-04-30 09:24 | 26.20304 | 36.72371 | 35948 ft | 415 kts | 264° |
| 2026-04-30 09:25 | 26.19665 | 36.65981 | 35945 ft | 415 kts | 264° |
| 2026-04-30 09:25 | 26.19024 | 36.59604 | 35935 ft | 415 kts | 264° |
| 2026-04-30 09:26 | 26.19099 | 36.53200 | 35932 ft | 416 kts | 278° |
| 2026-04-30 09:26 | 26.20857 | 36.47049 | 35933 ft | 423 kts | 292° |
| 2026-04-30 09:27 | 26.24195 | 36.41596 | 35945 ft | 435 kts | 306° |
| 2026-04-30 09:27 | 26.28439 | 36.36753 | 35939 ft | 436 kts | 307° |
| 2026-04-30 09:28 | 26.32654 | 36.31887 | 35938 ft | 436 kts | 307° |
| 2026-04-30 09:28 | 26.36860 | 36.27025 | 35935 ft | 436 kts | 307° |
| 2026-04-30 09:29 | 26.41071 | 36.22156 | 35937 ft | 436 kts | 307° |
| 2026-04-30 09:29 | 26.45274 | 36.17293 | 35934 ft | 435 kts | 307° |
| 2026-04-30 09:30 | 26.49479 | 36.12421 | 35935 ft | 435 kts | 307° |
| 2026-04-30 09:30 | 26.53677 | 36.07553 | 35932 ft | 435 kts | 307° |
| 2026-04-30 09:31 | 26.57871 | 36.02684 | 35934 ft | 435 kts | 307° |
| 2026-04-30 09:31 | 26.62053 | 35.97823 | 35928 ft | 435 kts | 307° |
| 2026-04-30 09:32 | 26.66253 | 35.92936 | 35931 ft | 435 kts | 307° |
| 2026-04-30 09:32 | 26.70419 | 35.88084 | 35936 ft | 435 kts | 307° |
| 2026-04-30 09:33 | 26.74607 | 35.83200 | 35937 ft | 435 kts | 307° |
| 2026-04-30 09:33 | 26.78822 | 35.78280 | 35938 ft | 435 kts | 307° |
| 2026-04-30 09:34 | 26.83002 | 35.73394 | 35938 ft | 434 kts | 307° |
| 2026-04-30 09:34 | 26.87181 | 35.68505 | 35935 ft | 434 kts | 307° |
| 2026-04-30 09:35 | 26.91353 | 35.63620 | 35939 ft | 434 kts | 307° |
| 2026-04-30 09:35 | 26.95526 | 35.58726 | 35940 ft | 434 kts | 307° |
| 2026-04-30 09:36 | 26.99686 | 35.53844 | 35942 ft | 433 kts | 307° |
| 2026-04-30 09:36 | 27.03825 | 35.48979 | 35944 ft | 433 kts | 307° |
| 2026-04-30 09:37 | 27.08013 | 35.44052 | 35948 ft | 433 kts | 307° |
| 2026-04-30 09:37 | 27.12162 | 35.39164 | 35942 ft | 433 kts | 307° |
| 2026-04-30 09:38 | 27.16287 | 35.34300 | 35945 ft | 433 kts | 307° |
| 2026-04-30 09:38 | 27.20433 | 35.29405 | 35945 ft | 432 kts | 307° |
| 2026-04-30 09:39 | 27.24573 | 35.24511 | 35935 ft | 432 kts | 307° |
| 2026-04-30 09:39 | 27.28713 | 35.19613 | 35926 ft | 432 kts | 307° |
| 2026-04-30 09:40 | 27.32853 | 35.14708 | 35927 ft | 432 kts | 307° |
| 2026-04-30 09:40 | 27.36990 | 35.09801 | 35927 ft | 432 kts | 307° |
| 2026-04-30 09:41 | 27.41130 | 35.04885 | 35933 ft | 432 kts | 307° |
| 2026-04-30 09:41 | 27.45266 | 34.99968 | 35936 ft | 432 kts | 307° |
| 2026-04-30 09:42 | 27.49400 | 34.95048 | 35934 ft | 433 kts | 307° |
| 2026-04-30 09:42 | 27.53695 | 34.90252 | 35936 ft | 436 kts | 310° |
| 2026-04-30 09:43 | 27.58126 | 34.85590 | 35940 ft | 436 kts | 310° |
| 2026-04-30 09:43 | 27.62517 | 34.80947 | 35942 ft | 436 kts | 310° |
| 2026-04-30 09:44 | 27.66958 | 34.76246 | 35941 ft | 437 kts | 310° |
| 2026-04-30 09:44 | 27.71387 | 34.71554 | 35943 ft | 437 kts | 310° |
| 2026-04-30 09:45 | 27.75814 | 34.66858 | 35949 ft | 437 kts | 310° |
| 2026-04-30 09:45 | 27.80286 | 34.62109 | 35958 ft | 438 kts | 310° |
| 2026-04-30 09:46 | 27.84694 | 34.57424 | 35966 ft | 438 kts | 310° |
| 2026-04-30 09:46 | 27.89133 | 34.52699 | 35968 ft | 438 kts | 310° |
| 2026-04-30 09:47 | 27.93568 | 34.47972 | 35971 ft | 438 kts | 310° |
| 2026-04-30 09:47 | 27.98006 | 34.43246 | 35970 ft | 438 kts | 310° |
| 2026-04-30 09:48 | 28.02084 | 34.38194 | 35968 ft | 432 kts | 303° |
| 2026-04-30 09:48 | 28.05884 | 34.32918 | 35966 ft | 433 kts | 304° |
| 2026-04-30 09:49 | 28.09706 | 34.27645 | 35965 ft | 433 kts | 304° |
| 2026-04-30 09:49 | 28.13525 | 34.22357 | 35975 ft | 434 kts | 304° |
| 2026-04-30 09:50 | 28.17348 | 34.17054 | 35979 ft | 435 kts | 304° |
| 2026-04-30 09:50 | 28.21171 | 34.11742 | 35987 ft | 435 kts | 304° |
| 2026-04-30 09:51 | 28.25004 | 34.06413 | 35998 ft | 436 kts | 304° |
| 2026-04-30 09:51 | 28.28812 | 34.01108 | 36000 ft | 436 kts | 304° |
| 2026-04-30 09:52 | 28.32638 | 33.95774 | 35995 ft | 436 kts | 304° |
| 2026-04-30 09:52 | 28.36474 | 33.90420 | 36004 ft | 437 kts | 304° |
| 2026-04-30 09:53 | 28.40318 | 33.85048 | 36007 ft | 439 kts | 304° |
| 2026-04-30 09:53 | 28.44165 | 33.79663 | 36007 ft | 439 kts | 304° |
| 2026-04-30 09:54 | 28.48018 | 33.74263 | 36018 ft | 439 kts | 304° |
| 2026-04-30 09:54 | 28.51857 | 33.68876 | 36024 ft | 439 kts | 304° |
| 2026-04-30 09:55 | 28.55705 | 33.63474 | 36010 ft | 437 kts | 304° |
| 2026-04-30 09:55 | 28.59531 | 33.58109 | 36013 ft | 437 kts | 304° |
| 2026-04-30 09:56 | 28.62774 | 33.53557 | 36006 ft | 437 kts | 304° |
| 2026-04-30 09:56 | 28.66517 | 33.48285 | 36000 ft | 437 kts | 304° |
| 2026-04-30 09:57 | 28.70413 | 33.42783 | 36001 ft | 437 kts | 304° |
| 2026-04-30 09:57 | 28.74208 | 33.37421 | 35998 ft | 437 kts | 304° |
| 2026-04-30 09:58 | 28.78021 | 33.32027 | 35998 ft | 437 kts | 304° |
| 2026-04-30 09:58 | 28.81820 | 33.26644 | 36002 ft | 437 kts | 304° |
| 2026-04-30 09:59 | 28.89446 | 33.15821 | 36000 ft | 438 kts | 304° |
| 2026-04-30 10:00 | 28.95199 | 33.07634 | 36006 ft | 438 kts | 304° |
| 2026-04-30 10:01 | 29.01024 | 32.99332 | 36012 ft | 438 kts | 304° |
| 2026-04-30 10:02 | 29.06823 | 32.91048 | 36024 ft | 438 kts | 304° |
| 2026-04-30 10:02 | 29.10606 | 32.85636 | 36020 ft | 439 kts | 304° |
| 2026-04-30 10:03 | 29.14416 | 32.80179 | 36021 ft | 438 kts | 304° |
| 2026-04-30 10:03 | 29.18244 | 32.74688 | 36023 ft | 438 kts | 304° |
| 2026-04-30 10:04 | 29.22043 | 32.69230 | 36027 ft | 438 kts | 304° |
| 2026-04-30 10:04 | 29.25836 | 32.63775 | 36030 ft | 438 kts | 304° |
| 2026-04-30 10:05 | 29.29613 | 32.58332 | 36032 ft | 437 kts | 304° |
| 2026-04-30 10:05 | 29.33376 | 32.52851 | 36033 ft | 437 kts | 304° |
| 2026-04-30 10:06 | 29.37133 | 32.47369 | 36037 ft | 437 kts | 304° |
| 2026-04-30 10:06 | 29.40915 | 32.41848 | 36042 ft | 437 kts | 304° |
| 2026-04-30 10:07 | 29.44647 | 32.36396 | 36040 ft | 437 kts | 304° |
| 2026-04-30 10:07 | 29.48407 | 32.30895 | 36039 ft | 437 kts | 304° |
| 2026-04-30 10:08 | 29.52155 | 32.25403 | 36044 ft | 437 kts | 304° |
| 2026-04-30 10:08 | 29.55902 | 32.19908 | 36043 ft | 437 kts | 304° |
| 2026-04-30 10:09 | 29.59646 | 32.14408 | 36045 ft | 437 kts | 304° |
| 2026-04-30 10:09 | 29.63392 | 32.08897 | 36050 ft | 437 kts | 304° |
| 2026-04-30 10:10 | 29.67137 | 32.03382 | 36054 ft | 438 kts | 304° |
| 2026-04-30 10:10 | 29.70887 | 31.97850 | 36057 ft | 438 kts | 304° |
| 2026-04-30 10:11 | 29.74627 | 31.92327 | 36061 ft | 438 kts | 304° |
| 2026-04-30 10:11 | 29.78342 | 31.86833 | 36063 ft | 438 kts | 304° |
| 2026-04-30 10:12 | 29.81991 | 31.81227 | 36067 ft | 437 kts | 302° |
| 2026-04-30 10:12 | 29.85624 | 31.75509 | 36074 ft | 436 kts | 303° |
| 2026-04-30 10:13 | 29.89157 | 31.69979 | 36076 ft | 436 kts | 303° |
| 2026-04-30 10:13 | 29.92832 | 31.64241 | 36075 ft | 436 kts | 303° |
| 2026-04-30 10:14 | 29.96447 | 31.58661 | 36031 ft | 436 kts | 303° |
| 2026-04-30 10:14 | 30.01897 | 31.50235 | 36021 ft | 436 kts | 303° |
| 2026-04-30 10:15 | 30.05501 | 31.44647 | 36022 ft | 437 kts | 303° |
| 2026-04-30 10:15 | 30.09231 | 31.39108 | 36023 ft | 439 kts | 308° |
| 2026-04-30 10:16 | 30.12884 | 31.34942 | 36025 ft | 442 kts | 313° |
| 2026-04-30 10:17 | 30.19638 | 31.27699 | 36024 ft | 442 kts | 313° |
| 2026-04-30 10:17 | 30.26342 | 31.20479 | 36023 ft | 441 kts | 313° |
| 2026-04-30 10:18 | 30.30830 | 31.15643 | 36026 ft | 441 kts | 313° |
| 2026-04-30 10:19 | 30.37554 | 31.08387 | 36029 ft | 441 kts | 313° |
| 2026-04-30 10:19 | 30.42032 | 31.03546 | 36029 ft | 440 kts | 313° |
| 2026-04-30 10:20 | 30.46515 | 30.98695 | 36023 ft | 440 kts | 313° |
| 2026-04-30 10:20 | 30.53234 | 30.91412 | 36024 ft | 440 kts | 313° |
| 2026-04-30 10:21 | 30.57698 | 30.86564 | 36029 ft | 440 kts | 313° |
| 2026-04-30 10:21 | 30.62164 | 30.81708 | 36040 ft | 440 kts | 313° |
| 2026-04-30 10:22 | 30.66621 | 30.76856 | 36030 ft | 440 kts | 313° |
| 2026-04-30 10:22 | 30.71085 | 30.71989 | 36029 ft | 439 kts | 313° |
| 2026-04-30 10:23 | 30.75504 | 30.67166 | 36032 ft | 439 kts | 313° |
| 2026-04-30 10:23 | 30.79982 | 30.62270 | 36037 ft | 439 kts | 313° |
| 2026-04-30 10:24 | 30.84427 | 30.57406 | 36030 ft | 438 kts | 313° |
| 2026-04-30 10:24 | 30.88846 | 30.52563 | 36037 ft | 438 kts | 313° |
| 2026-04-30 10:25 | 30.93277 | 30.47700 | 36043 ft | 437 kts | 313° |
| 2026-04-30 10:25 | 30.97704 | 30.42835 | 36032 ft | 437 kts | 313° |
| 2026-04-30 10:26 | 31.02120 | 30.37975 | 36034 ft | 436 kts | 313° |
| 2026-04-30 10:26 | 31.06400 | 30.32981 | 36043 ft | 433 kts | 306° |
| 2026-04-30 10:27 | 31.09663 | 30.27169 | 36050 ft | 429 kts | 295° |
| 2026-04-30 10:27 | 31.11773 | 30.20678 | 36053 ft | 428 kts | 287° |
| 2026-04-30 10:28 | 31.13581 | 30.14055 | 36062 ft | 429 kts | 287° |
| 2026-04-30 10:28 | 31.15398 | 30.07428 | 36070 ft | 429 kts | 287° |
| 2026-04-30 10:29 | 31.17392 | 30.00860 | 36078 ft | 430 kts | 295° |
| 2026-04-30 10:29 | 31.20810 | 29.95119 | 36079 ft | 436 kts | 310° |
| 2026-04-30 10:30 | 31.25644 | 29.90769 | 36083 ft | 446 kts | 326° |
| 2026-04-30 10:30 | 31.31134 | 29.87378 | 36078 ft | 446 kts | 327° |
| 2026-04-30 10:31 | 31.36607 | 29.83947 | 36080 ft | 446 kts | 327° |
| 2026-04-30 10:31 | 31.42083 | 29.80510 | 36075 ft | 446 kts | 327° |
| 2026-04-30 10:32 | 31.47546 | 29.77081 | 36075 ft | 446 kts | 327° |
| 2026-04-30 10:32 | 31.53022 | 29.73640 | 36074 ft | 446 kts | 327° |
| 2026-04-30 10:33 | 31.58489 | 29.70201 | 36076 ft | 446 kts | 327° |
| 2026-04-30 10:33 | 31.63939 | 29.66767 | 36075 ft | 445 kts | 327° |
| 2026-04-30 10:34 | 31.69410 | 29.63316 | 36071 ft | 445 kts | 327° |
| 2026-04-30 10:34 | 31.74827 | 29.59894 | 36077 ft | 445 kts | 327° |
| 2026-04-30 10:35 | 31.80276 | 29.56448 | 36076 ft | 445 kts | 327° |
| 2026-04-30 10:35 | 31.85726 | 29.52996 | 36076 ft | 445 kts | 327° |
| 2026-04-30 10:36 | 31.91172 | 29.49543 | 36076 ft | 445 kts | 327° |
| 2026-04-30 10:36 | 31.96615 | 29.46086 | 36076 ft | 445 kts | 327° |
| 2026-04-30 10:37 | 32.02059 | 29.42625 | 36076 ft | 445 kts | 326° |
| 2026-04-30 10:37 | 32.07499 | 29.39161 | 36073 ft | 445 kts | 326° |
| 2026-04-30 10:38 | 32.12935 | 29.35694 | 36072 ft | 444 kts | 326° |
| 2026-04-30 10:38 | 32.18381 | 29.32217 | 36072 ft | 444 kts | 326° |
| 2026-04-30 10:39 | 32.23818 | 29.28741 | 36075 ft | 444 kts | 326° |
| 2026-04-30 10:39 | 32.29253 | 29.25255 | 36072 ft | 444 kts | 326° |
| 2026-04-30 10:40 | 32.34687 | 29.21769 | 36073 ft | 445 kts | 326° |
| 2026-04-30 10:40 | 32.40125 | 29.18275 | 36071 ft | 445 kts | 326° |
| 2026-04-30 10:41 | 32.45559 | 29.14778 | 36070 ft | 445 kts | 327° |
| 2026-04-30 10:41 | 32.50999 | 29.11273 | 36066 ft | 445 kts | 327° |
| 2026-04-30 10:42 | 32.56440 | 29.07761 | 36069 ft | 446 kts | 327° |
| 2026-04-30 10:42 | 32.61890 | 29.04239 | 36069 ft | 446 kts | 327° |
| 2026-04-30 10:43 | 32.67336 | 29.00715 | 36068 ft | 446 kts | 327° |
| 2026-04-30 10:43 | 32.72754 | 28.97204 | 36066 ft | 447 kts | 327° |
| 2026-04-30 10:44 | 32.78213 | 28.93662 | 36065 ft | 447 kts | 327° |
| 2026-04-30 10:44 | 32.83670 | 28.90115 | 36069 ft | 447 kts | 327° |
| 2026-04-30 10:45 | 32.89131 | 28.86562 | 36070 ft | 448 kts | 327° |
| 2026-04-30 10:45 | 32.94595 | 28.83001 | 36070 ft | 448 kts | 327° |
| 2026-04-30 10:46 | 33.00066 | 28.79431 | 36064 ft | 448 kts | 327° |
| 2026-04-30 10:46 | 33.05525 | 28.75863 | 36073 ft | 448 kts | 327° |
| 2026-04-30 10:47 | 33.10998 | 28.72281 | 36075 ft | 448 kts | 327° |
| 2026-04-30 10:47 | 33.16472 | 28.68694 | 36066 ft | 449 kts | 327° |
| 2026-04-30 10:48 | 33.21940 | 28.65104 | 36060 ft | 449 kts | 327° |
| 2026-04-30 10:48 | 33.27426 | 28.61498 | 36061 ft | 450 kts | 327° |
| 2026-04-30 10:49 | 33.32905 | 28.57892 | 36069 ft | 450 kts | 327° |
| 2026-04-30 10:49 | 33.38400 | 28.54269 | 36064 ft | 450 kts | 327° |
| 2026-04-30 10:50 | 33.43888 | 28.50647 | 36063 ft | 451 kts | 327° |
| 2026-04-30 10:50 | 33.49379 | 28.47016 | 36064 ft | 451 kts | 327° |
| 2026-04-30 10:51 | 33.54869 | 28.43382 | 36067 ft | 451 kts | 327° |
| 2026-04-30 10:51 | 33.60368 | 28.39735 | 36067 ft | 451 kts | 327° |
| 2026-04-30 10:52 | 33.65862 | 28.36087 | 36063 ft | 452 kts | 327° |
| 2026-04-30 10:52 | 33.71359 | 28.32431 | 36058 ft | 452 kts | 327° |
| 2026-04-30 10:53 | 33.76867 | 28.28764 | 36061 ft | 452 kts | 327° |
| 2026-04-30 10:53 | 33.82368 | 28.25091 | 36059 ft | 453 kts | 327° |
| 2026-04-30 10:54 | 33.87862 | 28.21378 | 36060 ft | 453 kts | 327° |
| 2026-04-30 10:54 | 33.93362 | 28.17657 | 36063 ft | 453 kts | 327° |
| 2026-04-30 10:55 | 33.98862 | 28.13934 | 36061 ft | 454 kts | 327° |
| 2026-04-30 10:55 | 34.04373 | 28.10200 | 36054 ft | 454 kts | 327° |
| 2026-04-30 10:56 | 34.09883 | 28.06460 | 36060 ft | 455 kts | 327° |
| 2026-04-30 10:56 | 34.15354 | 28.02742 | 36053 ft | 455 kts | 327° |
| 2026-04-30 10:57 | 34.20877 | 27.98982 | 36057 ft | 455 kts | 327° |
| 2026-04-30 10:57 | 34.26387 | 27.95225 | 36058 ft | 455 kts | 327° |
| 2026-04-30 10:58 | 34.31916 | 27.91450 | 36038 ft | 456 kts | 327° |
| 2026-04-30 10:58 | 34.37443 | 27.87671 | 36039 ft | 456 kts | 327° |
| 2026-04-30 10:59 | 34.42969 | 27.83886 | 36038 ft | 456 kts | 327° |
| 2026-04-30 10:59 | 34.48494 | 27.80096 | 36047 ft | 457 kts | 327° |
| 2026-04-30 11:00 | 34.54025 | 27.76297 | 36049 ft | 457 kts | 327° |
| 2026-04-30 11:00 | 34.59552 | 27.72481 | 36054 ft | 457 kts | 326° |
| 2026-04-30 11:01 | 34.65082 | 27.68655 | 36073 ft | 457 kts | 326° |
| 2026-04-30 11:01 | 34.70523 | 27.64884 | 36052 ft | 458 kts | 326° |
| 2026-04-30 11:02 | 34.76139 | 27.60988 | 36050 ft | 458 kts | 326° |
| 2026-04-30 11:02 | 34.80774 | 27.57768 | 36051 ft | 459 kts | 326° |
| 2026-04-30 11:03 | 34.86327 | 27.53904 | 36052 ft | 459 kts | 326° |
| 2026-04-30 11:04 | 34.94638 | 27.48110 | 36048 ft | 460 kts | 326° |
| 2026-04-30 11:04 | 35.00184 | 27.44237 | 36051 ft | 460 kts | 326° |
| 2026-04-30 11:05 | 35.05806 | 27.40303 | 36046 ft | 460 kts | 326° |
| 2026-04-30 11:05 | 35.11311 | 27.36445 | 36043 ft | 460 kts | 326° |
| 2026-04-30 11:06 | 35.16922 | 27.32507 | 36049 ft | 461 kts | 326° |
| 2026-04-30 11:06 | 35.22481 | 27.28600 | 36041 ft | 461 kts | 326° |
| 2026-04-30 11:07 | 35.28057 | 27.24673 | 36046 ft | 462 kts | 326° |
| 2026-04-30 11:07 | 35.33623 | 27.20748 | 36049 ft | 462 kts | 326° |
| 2026-04-30 11:08 | 35.39161 | 27.16836 | 36047 ft | 462 kts | 326° |
| 2026-04-30 11:08 | 35.44747 | 27.12918 | 36051 ft | 463 kts | 327° |
| 2026-04-30 11:09 | 35.50380 | 27.09162 | 36047 ft | 456 kts | 327° |
| 2026-04-30 11:09 | 35.55906 | 27.05478 | 36051 ft | 451 kts | 327° |
| 2026-04-30 11:10 | 35.61426 | 27.01769 | 36047 ft | 453 kts | 327° |
| 2026-04-30 11:10 | 35.66956 | 26.98045 | 36050 ft | 453 kts | 327° |
| 2026-04-30 11:11 | 35.72476 | 26.94323 | 36044 ft | 454 kts | 327° |
| 2026-04-30 11:11 | 35.78027 | 26.90571 | 36062 ft | 455 kts | 327° |
| 2026-04-30 11:12 | 35.83574 | 26.86815 | 36068 ft | 456 kts | 327° |
| 2026-04-30 11:12 | 35.89151 | 26.83034 | 36065 ft | 456 kts | 327° |
| 2026-04-30 11:13 | 35.94787 | 26.79206 | 36065 ft | 456 kts | 327° |
| 2026-04-30 11:13 | 36.00345 | 26.75424 | 36054 ft | 455 kts | 327° |
| 2026-04-30 11:14 | 36.05857 | 26.71667 | 36051 ft | 455 kts | 327° |
| 2026-04-30 11:14 | 36.11392 | 26.67889 | 36044 ft | 455 kts | 327° |
| 2026-04-30 11:15 | 36.16935 | 26.64099 | 36037 ft | 454 kts | 327° |
| 2026-04-30 11:15 | 36.22478 | 26.60303 | 36033 ft | 454 kts | 327° |
| 2026-04-30 11:16 | 36.27999 | 26.56515 | 36032 ft | 454 kts | 327° |
| 2026-04-30 11:16 | 36.33494 | 26.52739 | 36032 ft | 454 kts | 327° |
| 2026-04-30 11:17 | 36.38983 | 26.48962 | 36032 ft | 455 kts | 327° |
| 2026-04-30 11:17 | 36.44520 | 26.45145 | 36034 ft | 455 kts | 327° |
| 2026-04-30 11:18 | 36.50066 | 26.41315 | 36037 ft | 456 kts | 327° |
| 2026-04-30 11:18 | 36.58378 | 26.35564 | 36037 ft | 456 kts | 327° |
| 2026-04-30 11:19 | 36.63870 | 26.31757 | 36039 ft | 456 kts | 327° |
| 2026-04-30 11:19 | 36.69521 | 26.27832 | 36037 ft | 456 kts | 327° |
| 2026-04-30 11:20 | 36.75068 | 26.23973 | 36039 ft | 457 kts | 327° |
| 2026-04-30 11:20 | 36.80608 | 26.20113 | 36039 ft | 457 kts | 327° |
| 2026-04-30 11:21 | 36.86146 | 26.16248 | 36037 ft | 457 kts | 327° |
| 2026-04-30 11:21 | 36.91700 | 26.12364 | 36037 ft | 457 kts | 327° |
| 2026-04-30 11:22 | 36.97252 | 26.08476 | 36038 ft | 457 kts | 326° |
| 2026-04-30 11:22 | 37.02750 | 26.04619 | 36034 ft | 457 kts | 326° |
| 2026-04-30 11:23 | 37.08380 | 26.00663 | 36033 ft | 457 kts | 326° |
| 2026-04-30 11:24 | 37.16703 | 25.94802 | 36034 ft | 457 kts | 326° |
| 2026-04-30 11:24 | 37.22255 | 25.90884 | 36034 ft | 458 kts | 326° |
| 2026-04-30 11:25 | 37.30581 | 25.84995 | 36033 ft | 458 kts | 326° |
| 2026-04-30 11:26 | 37.41683 | 25.77120 | 36042 ft | 458 kts | 326° |
| 2026-04-30 11:26 | 37.47232 | 25.73175 | 36047 ft | 458 kts | 326° |
| 2026-04-30 11:27 | 37.52780 | 25.69222 | 36043 ft | 458 kts | 326° |
| 2026-04-30 11:27 | 37.58322 | 25.65267 | 36031 ft | 458 kts | 326° |
| 2026-04-30 11:28 | 37.66623 | 25.59331 | 36028 ft | 459 kts | 326° |
| 2026-04-30 11:29 | 37.72177 | 25.55350 | 36038 ft | 459 kts | 326° |
| 2026-04-30 11:29 | 37.80518 | 25.49359 | 36033 ft | 460 kts | 326° |
| 2026-04-30 11:30 | 37.88826 | 25.43376 | 36033 ft | 460 kts | 326° |
| 2026-04-30 11:31 | 37.94411 | 25.39345 | 36039 ft | 460 kts | 326° |
| 2026-04-30 11:31 | 37.99973 | 25.35324 | 36039 ft | 460 kts | 326° |
| 2026-04-30 11:32 | 38.05552 | 25.31283 | 36038 ft | 460 kts | 326° |
| 2026-04-30 11:32 | 38.11067 | 25.27281 | 36036 ft | 460 kts | 326° |
| 2026-04-30 11:33 | 38.18520 | 25.21863 | 36039 ft | 461 kts | 326° |
| 2026-04-30 11:33 | 38.24060 | 25.17826 | 36038 ft | 461 kts | 326° |
| 2026-04-30 11:34 | 38.29651 | 25.13745 | 36039 ft | 461 kts | 326° |
| 2026-04-30 11:34 | 38.35210 | 25.09681 | 36035 ft | 461 kts | 326° |
| 2026-04-30 11:35 | 38.40734 | 25.05635 | 36035 ft | 461 kts | 326° |
| 2026-04-30 11:35 | 38.46325 | 25.01532 | 36041 ft | 461 kts | 326° |
| 2026-04-30 11:36 | 38.51844 | 24.97475 | 36037 ft | 461 kts | 326° |
| 2026-04-30 11:36 | 38.57396 | 24.93386 | 36043 ft | 461 kts | 326° |
| 2026-04-30 11:37 | 38.62956 | 24.89284 | 36039 ft | 461 kts | 326° |
| 2026-04-30 11:37 | 38.68513 | 24.85177 | 36043 ft | 461 kts | 326° |
| 2026-04-30 11:38 | 38.74075 | 24.81059 | 36027 ft | 461 kts | 326° |
| 2026-04-30 11:38 | 38.79622 | 24.76944 | 36032 ft | 461 kts | 326° |
| 2026-04-30 11:39 | 38.85161 | 24.72828 | 36037 ft | 461 kts | 325° |
| 2026-04-30 11:39 | 38.90710 | 24.68696 | 36043 ft | 461 kts | 325° |
| 2026-04-30 11:40 | 38.96259 | 24.64558 | 36047 ft | 461 kts | 325° |
| 2026-04-30 11:40 | 39.01772 | 24.60438 | 36048 ft | 461 kts | 325° |
| 2026-04-30 11:41 | 39.07311 | 24.56292 | 36046 ft | 461 kts | 325° |
| 2026-04-30 11:41 | 39.12859 | 24.52132 | 36047 ft | 460 kts | 325° |
| 2026-04-30 11:42 | 39.18396 | 24.47971 | 36049 ft | 460 kts | 325° |
| 2026-04-30 11:42 | 39.23932 | 24.43804 | 36047 ft | 460 kts | 325° |
| 2026-04-30 11:43 | 39.29432 | 24.39656 | 36047 ft | 460 kts | 325° |
| 2026-04-30 11:43 | 39.34943 | 24.35493 | 36048 ft | 460 kts | 325° |
| 2026-04-30 11:44 | 39.40482 | 24.31300 | 36052 ft | 460 kts | 325° |
| 2026-04-30 11:44 | 39.46011 | 24.27108 | 36047 ft | 460 kts | 325° |
| 2026-04-30 11:45 | 39.51532 | 24.22913 | 36049 ft | 460 kts | 325° |
| 2026-04-30 11:45 | 39.57059 | 24.18707 | 36048 ft | 460 kts | 325° |
| 2026-04-30 11:46 | 39.62576 | 24.14499 | 36049 ft | 460 kts | 325° |
| 2026-04-30 11:46 | 39.68053 | 24.10316 | 36050 ft | 460 kts | 325° |
| 2026-04-30 11:47 | 39.73566 | 24.06096 | 36055 ft | 460 kts | 325° |
| 2026-04-30 11:47 | 39.79078 | 24.01869 | 36054 ft | 460 kts | 325° |
| 2026-04-30 11:48 | 39.84599 | 23.97627 | 36051 ft | 460 kts | 325° |
| 2026-04-30 11:48 | 39.90099 | 23.93393 | 36051 ft | 460 kts | 325° |
| 2026-04-30 11:49 | 39.95584 | 23.89163 | 36050 ft | 460 kts | 325° |
| 2026-04-30 11:49 | 40.01106 | 23.84897 | 36053 ft | 460 kts | 325° |
| 2026-04-30 11:50 | 40.06600 | 23.80643 | 36057 ft | 460 kts | 325° |
| 2026-04-30 11:50 | 40.12107 | 23.76371 | 36056 ft | 460 kts | 325° |
| 2026-04-30 11:51 | 40.17602 | 23.72102 | 36060 ft | 460 kts | 325° |
| 2026-04-30 11:51 | 40.23146 | 23.67786 | 36061 ft | 460 kts | 325° |
| 2026-04-30 11:52 | 40.28642 | 23.63500 | 36056 ft | 459 kts | 325° |
| 2026-04-30 11:52 | 40.34129 | 23.59211 | 36058 ft | 459 kts | 324° |
| 2026-04-30 11:53 | 40.39615 | 23.54916 | 36050 ft | 459 kts | 324° |
| 2026-04-30 11:53 | 40.45058 | 23.50644 | 36045 ft | 458 kts | 324° |
| 2026-04-30 11:54 | 40.50484 | 23.46379 | 36053 ft | 458 kts | 324° |
| 2026-04-30 11:54 | 40.55964 | 23.42064 | 36052 ft | 457 kts | 324° |
| 2026-04-30 11:55 | 40.61416 | 23.37762 | 36048 ft | 457 kts | 324° |
| 2026-04-30 11:55 | 40.66831 | 23.33481 | 36045 ft | 456 kts | 324° |
| 2026-04-30 11:56 | 40.72296 | 23.29152 | 36047 ft | 456 kts | 324° |
| 2026-04-30 11:56 | 40.77722 | 23.24845 | 36029 ft | 455 kts | 324° |
| 2026-04-30 11:57 | 40.83102 | 23.20568 | 36027 ft | 455 kts | 324° |
| 2026-04-30 11:57 | 40.88514 | 23.16258 | 36034 ft | 454 kts | 323° |
| 2026-04-30 11:58 | 40.93943 | 23.11928 | 36037 ft | 454 kts | 323° |
| 2026-04-30 11:58 | 40.99343 | 23.07614 | 36046 ft | 453 kts | 323° |
| 2026-04-30 11:59 | 41.04755 | 23.03279 | 36053 ft | 452 kts | 322° |
| 2026-04-30 11:59 | 41.09743 | 22.98345 | 36065 ft | 445 kts | 314° |
| 2026-04-30 12:00 | 41.14070 | 22.92543 | 36079 ft | 439 kts | 306° |
| 2026-04-30 12:00 | 41.18001 | 22.86354 | 36080 ft | 438 kts | 306° |
| 2026-04-30 12:01 | 41.21950 | 22.80194 | 36090 ft | 437 kts | 306° |
| 2026-04-30 12:01 | 41.25884 | 22.74037 | 36095 ft | 436 kts | 307° |
| 2026-04-30 12:02 | 41.29960 | 22.68103 | 36098 ft | 436 kts | 308° |
| 2026-04-30 12:02 | 41.34097 | 22.62126 | 36106 ft | 435 kts | 308° |
| 2026-04-30 12:03 | 41.40168 | 22.53237 | 36122 ft | 434 kts | 308° |
| 2026-04-30 12:04 | 41.44211 | 22.47288 | 36128 ft | 433 kts | 308° |
| 2026-04-30 12:04 | 41.48222 | 22.41377 | 36132 ft | 433 kts | 307° |
| 2026-04-30 12:05 | 41.52284 | 22.35377 | 36130 ft | 433 kts | 307° |
| 2026-04-30 12:05 | 41.56325 | 22.29397 | 36137 ft | 432 kts | 307° |
| 2026-04-30 12:06 | 41.60346 | 22.23435 | 36140 ft | 432 kts | 307° |
| 2026-04-30 12:06 | 41.63683 | 22.18477 | 36144 ft | 432 kts | 307° |
| 2026-04-30 12:07 | 41.67695 | 22.12506 | 36150 ft | 431 kts | 307° |
| 2026-04-30 12:07 | 41.71708 | 22.06523 | 36156 ft | 431 kts | 307° |
| 2026-04-30 12:08 | 41.75704 | 22.00551 | 36165 ft | 431 kts | 307° |
| 2026-04-30 12:08 | 41.79708 | 21.94556 | 36188 ft | 431 kts | 307° |
| 2026-04-30 12:09 | 41.83704 | 21.88561 | 36212 ft | 431 kts | 307° |
| 2026-04-30 12:09 | 41.87659 | 21.82615 | 36234 ft | 432 kts | 307° |
| 2026-04-30 12:10 | 41.91659 | 21.76588 | 36254 ft | 433 kts | 307° |
| 2026-04-30 12:10 | 41.95658 | 21.70552 | 36263 ft | 433 kts | 307° |
| 2026-04-30 12:11 | 41.99690 | 21.64453 | 36269 ft | 433 kts | 307° |
| 2026-04-30 12:11 | 42.03675 | 21.58412 | 36269 ft | 433 kts | 307° |
| 2026-04-30 12:12 | 42.07679 | 21.52329 | 36270 ft | 434 kts | 307° |
| 2026-04-30 12:12 | 42.11651 | 21.46285 | 36273 ft | 434 kts | 307° |
| 2026-04-30 12:13 | 42.15638 | 21.40205 | 36273 ft | 434 kts | 307° |
| 2026-04-30 12:13 | 42.19594 | 21.34020 | 36267 ft | 433 kts | 306° |
| 2026-04-30 12:14 | 42.23483 | 21.27811 | 36270 ft | 433 kts | 306° |
| 2026-04-30 12:14 | 42.27377 | 21.21609 | 36272 ft | 433 kts | 306° |
| 2026-04-30 12:15 | 42.31296 | 21.15369 | 36274 ft | 433 kts | 306° |
| 2026-04-30 12:15 | 42.35186 | 21.09163 | 36272 ft | 432 kts | 306° |
| 2026-04-30 12:16 | 42.39062 | 21.02966 | 36273 ft | 431 kts | 306° |
| 2026-04-30 12:16 | 42.42943 | 20.96748 | 36265 ft | 431 kts | 306° |
| 2026-04-30 12:17 | 42.48750 | 20.87419 | 36261 ft | 431 kts | 306° |
| 2026-04-30 12:17 | 42.52623 | 20.81181 | 36255 ft | 432 kts | 306° |
| 2026-04-30 12:18 | 42.56486 | 20.74946 | 36252 ft | 432 kts | 306° |
| 2026-04-30 12:18 | 42.60353 | 20.68690 | 36252 ft | 433 kts | 306° |
| 2026-04-30 12:19 | 42.64210 | 20.62439 | 36249 ft | 434 kts | 306° |
| 2026-04-30 12:19 | 42.68091 | 20.56134 | 36252 ft | 435 kts | 306° |
| 2026-04-30 12:20 | 42.71973 | 20.49815 | 36251 ft | 435 kts | 306° |
| 2026-04-30 12:20 | 42.75855 | 20.43482 | 36252 ft | 436 kts | 306° |
| 2026-04-30 12:21 | 42.79742 | 20.37127 | 36240 ft | 437 kts | 306° |
| 2026-04-30 12:21 | 42.83630 | 20.30759 | 36245 ft | 437 kts | 306° |
| 2026-04-30 12:22 | 42.87590 | 20.24411 | 36251 ft | 439 kts | 307° |
| 2026-04-30 12:22 | 42.91591 | 20.18065 | 36259 ft | 440 kts | 307° |
| 2026-04-30 12:23 | 42.95546 | 20.11760 | 36263 ft | 441 kts | 307° |
| 2026-04-30 12:23 | 42.99541 | 20.05363 | 36269 ft | 442 kts | 307° |
| 2026-04-30 12:24 | 43.03525 | 19.98966 | 36271 ft | 443 kts | 307° |
| 2026-04-30 12:24 | 43.07521 | 19.92534 | 36281 ft | 444 kts | 307° |
| 2026-04-30 12:25 | 43.11523 | 19.86083 | 36282 ft | 445 kts | 307° |
| 2026-04-30 12:25 | 43.15498 | 19.79657 | 36289 ft | 446 kts | 307° |
| 2026-04-30 12:26 | 43.19536 | 19.73117 | 36289 ft | 447 kts | 307° |
| 2026-04-30 12:26 | 43.23528 | 19.66636 | 36288 ft | 448 kts | 307° |
| 2026-04-30 12:27 | 43.27543 | 19.60104 | 36287 ft | 448 kts | 307° |
| 2026-04-30 12:27 | 43.31554 | 19.53562 | 36288 ft | 448 kts | 307° |
| 2026-04-30 12:28 | 43.35568 | 19.47001 | 36287 ft | 449 kts | 307° |
| 2026-04-30 12:28 | 43.39619 | 19.40366 | 36285 ft | 449 kts | 307° |
| 2026-04-30 12:29 | 43.43632 | 19.33776 | 36282 ft | 450 kts | 307° |
| 2026-04-30 12:29 | 43.47649 | 19.27167 | 36279 ft | 450 kts | 307° |
| 2026-04-30 12:30 | 43.51662 | 19.20548 | 36279 ft | 450 kts | 307° |
| 2026-04-30 12:30 | 43.55661 | 19.13937 | 36281 ft | 451 kts | 308° |
| 2026-04-30 12:31 | 43.59676 | 19.07284 | 36282 ft | 452 kts | 308° |
| 2026-04-30 12:31 | 43.63692 | 19.00616 | 36281 ft | 452 kts | 308° |
| 2026-04-30 12:32 | 43.67703 | 18.93938 | 36284 ft | 452 kts | 308° |
| 2026-04-30 12:32 | 43.71753 | 18.87182 | 36276 ft | 452 kts | 308° |
| 2026-04-30 12:33 | 43.75793 | 18.80425 | 36281 ft | 453 kts | 308° |
| 2026-04-30 12:33 | 43.79774 | 18.73753 | 36283 ft | 453 kts | 308° |
| 2026-04-30 12:34 | 43.83780 | 18.67022 | 36284 ft | 453 kts | 308° |
| 2026-04-30 12:34 | 43.87793 | 18.60263 | 36288 ft | 453 kts | 308° |
| 2026-04-30 12:35 | 43.91790 | 18.53517 | 36289 ft | 453 kts | 308° |
| 2026-04-30 12:35 | 43.95791 | 18.46748 | 36291 ft | 454 kts | 308° |
| 2026-04-30 12:36 | 43.99785 | 18.39974 | 36287 ft | 455 kts | 308° |
| 2026-04-30 12:36 | 44.03794 | 18.33161 | 36289 ft | 455 kts | 308° |
| 2026-04-30 12:37 | 44.07802 | 18.26331 | 36280 ft | 456 kts | 308° |
| 2026-04-30 12:37 | 44.11810 | 18.19487 | 36285 ft | 456 kts | 308° |
| 2026-04-30 12:38 | 44.15807 | 18.12642 | 36293 ft | 457 kts | 308° |
| 2026-04-30 12:38 | 44.19814 | 18.05766 | 36299 ft | 457 kts | 308° |
| 2026-04-30 12:39 | 44.23825 | 17.98867 | 36298 ft | 458 kts | 308° |
| 2026-04-30 12:39 | 44.27831 | 17.91958 | 36300 ft | 458 kts | 308° |
| 2026-04-30 12:40 | 44.31849 | 17.85014 | 36308 ft | 459 kts | 308° |
| 2026-04-30 12:40 | 44.35847 | 17.78094 | 36306 ft | 460 kts | 308° |
| 2026-04-30 12:41 | 44.39925 | 17.71218 | 36315 ft | 460 kts | 310° |
| 2026-04-30 12:41 | 44.44166 | 17.64463 | 36314 ft | 461 kts | 310° |
| 2026-04-30 12:42 | 44.47662 | 17.58849 | 36319 ft | 461 kts | 310° |
| 2026-04-30 12:42 | 44.52575 | 17.50887 | 36320 ft | 461 kts | 310° |
| 2026-04-30 12:43 | 44.56055 | 17.45227 | 36323 ft | 462 kts | 310° |
| 2026-04-30 12:43 | 44.60245 | 17.38395 | 36332 ft | 462 kts | 310° |
| 2026-04-30 12:44 | 44.64445 | 17.31536 | 36333 ft | 462 kts | 310° |
| 2026-04-30 12:44 | 44.68662 | 17.24726 | 36341 ft | 462 kts | 311° |
| 2026-04-30 12:45 | 44.72891 | 17.17893 | 36348 ft | 462 kts | 311° |
| 2026-04-30 12:45 | 44.77114 | 17.11039 | 36344 ft | 462 kts | 311° |
| 2026-04-30 12:46 | 44.81296 | 17.04233 | 36342 ft | 462 kts | 311° |
| 2026-04-30 12:46 | 44.85514 | 16.97315 | 36342 ft | 462 kts | 310° |
| 2026-04-30 12:47 | 44.89595 | 16.90362 | 36341 ft | 462 kts | 310° |
| 2026-04-30 12:47 | 44.93742 | 16.83274 | 36339 ft | 462 kts | 310° |
| 2026-04-30 12:48 | 44.97849 | 16.76268 | 36333 ft | 462 kts | 310° |
| 2026-04-30 12:48 | 45.01946 | 16.69268 | 36333 ft | 462 kts | 310° |
| 2026-04-30 12:49 | 45.06018 | 16.62294 | 36338 ft | 462 kts | 310° |
| 2026-04-30 12:49 | 45.10152 | 16.55197 | 36337 ft | 462 kts | 310° |
| 2026-04-30 12:50 | 45.14211 | 16.48210 | 36341 ft | 462 kts | 310° |
| 2026-04-30 12:50 | 45.18299 | 16.41082 | 36337 ft | 463 kts | 309° |
| 2026-04-30 12:51 | 45.22305 | 16.34005 | 36341 ft | 463 kts | 309° |
| 2026-04-30 12:51 | 45.26348 | 16.26861 | 36346 ft | 463 kts | 309° |
| 2026-04-30 12:52 | 45.30393 | 16.19703 | 36348 ft | 463 kts | 309° |
| 2026-04-30 12:52 | 45.34419 | 16.12561 | 36350 ft | 463 kts | 309° |
| 2026-04-30 12:53 | 45.38447 | 16.05400 | 36348 ft | 463 kts | 309° |
| 2026-04-30 12:53 | 45.42462 | 15.98241 | 36352 ft | 463 kts | 309° |
| 2026-04-30 12:54 | 45.46460 | 15.91093 | 36353 ft | 464 kts | 309° |
| 2026-04-30 12:54 | 45.50481 | 15.83888 | 36359 ft | 464 kts | 309° |
| 2026-04-30 12:55 | 45.54491 | 15.76686 | 36363 ft | 464 kts | 309° |
| 2026-04-30 12:55 | 45.58493 | 15.69478 | 36366 ft | 465 kts | 309° |
| 2026-04-30 12:56 | 45.62387 | 15.62446 | 36370 ft | 465 kts | 309° |
| 2026-04-30 12:56 | 45.66473 | 15.55050 | 36373 ft | 465 kts | 309° |
| 2026-04-30 12:57 | 45.70446 | 15.47839 | 36378 ft | 465 kts | 309° |
| 2026-04-30 12:57 | 45.74464 | 15.40529 | 36371 ft | 466 kts | 309° |
| 2026-04-30 12:58 | 45.78480 | 15.33203 | 36366 ft | 466 kts | 309° |
| 2026-04-30 12:58 | 45.82496 | 15.25842 | 36365 ft | 467 kts | 309° |
| 2026-04-30 12:59 | 45.86497 | 15.18488 | 36366 ft | 468 kts | 309° |
| 2026-04-30 12:59 | 45.90506 | 15.11104 | 36370 ft | 468 kts | 309° |
| 2026-04-30 13:00 | 45.94512 | 15.03703 | 36363 ft | 469 kts | 309° |
| 2026-04-30 13:00 | 45.98480 | 14.96357 | 36379 ft | 470 kts | 309° |
| 2026-04-30 13:01 | 46.02473 | 14.88943 | 36375 ft | 470 kts | 309° |
| 2026-04-30 13:01 | 46.06502 | 14.81444 | 36354 ft | 471 kts | 309° |
| 2026-04-30 13:02 | 46.10521 | 14.73986 | 36344 ft | 472 kts | 310° |
| 2026-04-30 13:02 | 46.14523 | 14.66731 | 36333 ft | 472 kts | 310° |
| 2026-04-30 13:03 | 46.18625 | 14.59269 | 36325 ft | 472 kts | 310° |
| 2026-04-30 13:03 | 46.22707 | 14.51800 | 36322 ft | 473 kts | 310° |
| 2026-04-30 13:04 | 46.26786 | 14.44312 | 36325 ft | 473 kts | 310° |
| 2026-04-30 13:04 | 46.30829 | 14.36871 | 36323 ft | 473 kts | 310° |
| 2026-04-30 13:05 | 46.34851 | 14.29451 | 36328 ft | 473 kts | 310° |
| 2026-04-30 13:06 | 46.40922 | 14.18208 | 36320 ft | 473 kts | 310° |
| 2026-04-30 13:06 | 46.44981 | 14.10667 | 36317 ft | 473 kts | 310° |
| 2026-04-30 13:07 | 46.49031 | 14.03214 | 36312 ft | 473 kts | 314° |
| 2026-04-30 13:07 | 46.53564 | 13.96308 | 36316 ft | 472 kts | 316° |
| 2026-04-30 13:08 | 46.58085 | 13.89446 | 36314 ft | 473 kts | 316° |
| 2026-04-30 13:08 | 46.62623 | 13.82537 | 36310 ft | 473 kts | 316° |
| 2026-04-30 13:09 | 46.67134 | 13.75659 | 36302 ft | 473 kts | 316° |
| 2026-04-30 13:09 | 46.71728 | 13.68636 | 36292 ft | 473 kts | 316° |
| 2026-04-30 13:10 | 46.76257 | 13.61694 | 36282 ft | 473 kts | 317° |
| 2026-04-30 13:10 | 46.80778 | 13.54745 | 36280 ft | 473 kts | 317° |
| 2026-04-30 13:11 | 46.84620 | 13.48828 | 36281 ft | 473 kts | 317° |
| 2026-04-30 13:11 | 46.89147 | 13.41838 | 36276 ft | 473 kts | 317° |
| 2026-04-30 13:12 | 46.93672 | 13.34832 | 36265 ft | 472 kts | 317° |
| 2026-04-30 13:12 | 46.98162 | 13.27863 | 36259 ft | 472 kts | 317° |
| 2026-04-30 13:13 | 47.04983 | 13.17240 | 36262 ft | 474 kts | 317° |
| 2026-04-30 13:14 | 47.11726 | 13.06695 | 36270 ft | 475 kts | 317° |
| 2026-04-30 13:14 | 47.18466 | 12.96116 | 36267 ft | 475 kts | 317° |
| 2026-04-30 13:15 | 47.25170 | 12.85550 | 36281 ft | 474 kts | 317° |
| 2026-04-30 13:16 | 47.29671 | 12.78432 | 36269 ft | 475 kts | 317° |
| 2026-04-30 13:16 | 47.34133 | 12.71357 | 36274 ft | 475 kts | 317° |
| 2026-04-30 13:17 | 47.40898 | 12.60596 | 36273 ft | 476 kts | 317° |
| 2026-04-30 13:18 | 47.47680 | 12.49764 | 36291 ft | 477 kts | 317° |
| 2026-04-30 13:18 | 47.54552 | 12.38741 | 36299 ft | 477 kts | 317° |
| 2026-04-30 13:19 | 47.59012 | 12.31562 | 36301 ft | 478 kts | 317° |
| 2026-04-30 13:19 | 47.63485 | 12.24150 | 36311 ft | 481 kts | 313° |
| 2026-04-30 13:20 | 47.67235 | 12.15875 | 36313 ft | 486 kts | 306° |
| 2026-04-30 13:20 | 47.70763 | 12.07445 | 36313 ft | 486 kts | 307° |
| 2026-04-30 13:21 | 47.74270 | 11.99111 | 36313 ft | 486 kts | 307° |
| 2026-04-30 13:22 | 47.79541 | 11.86457 | 36314 ft | 487 kts | 307° |
| 2026-04-30 13:22 | 47.84921 | 11.73464 | 36315 ft | 487 kts | 307° |
| 2026-04-30 13:23 | 47.89607 | 11.62101 | 36319 ft | 488 kts | 307° |
| 2026-04-30 13:24 | 47.96607 | 11.45031 | 36319 ft | 488 kts | 306° |
| 2026-04-30 13:25 | 48.03693 | 11.27644 | 36308 ft | 489 kts | 306° |
| 2026-04-30 13:26 | 48.12363 | 11.06214 | 36324 ft | 490 kts | 306° |
| 2026-04-30 13:28 | 48.21221 | 10.84140 | 36322 ft | 490 kts | 306° |
| 2026-04-30 13:28 | 48.26554 | 10.70760 | 36321 ft | 491 kts | 306° |
| 2026-04-30 13:29 | 48.29882 | 10.62379 | 37279 ft | 490 kts | 306° |
| 2026-04-30 13:29 | 48.33245 | 10.53878 | 38441 ft | 485 kts | 305° |
| 2026-04-30 13:30 | 48.37850 | 10.42199 | 39730 ft | 481 kts | 305° |
| 2026-04-30 13:31 | 48.41263 | 10.33515 | 40305 ft | 485 kts | 304° |
| 2026-04-30 13:32 | 48.49384 | 10.12725 | 40320 ft | 478 kts | 304° |
| 2026-04-30 13:33 | 48.55333 | 9.97390 | 40314 ft | 479 kts | 304° |
| 2026-04-30 13:34 | 48.60280 | 9.84571 | 40301 ft | 478 kts | 304° |
| 2026-04-30 13:35 | 48.63332 | 9.76632 | 40287 ft | 477 kts | 304° |
| 2026-04-30 13:36 | 48.69779 | 9.61357 | 40270 ft | 472 kts | 311° |
| 2026-04-30 13:36 | 48.75636 | 9.49634 | 40262 ft | 473 kts | 310° |
| 2026-04-30 13:37 | 48.76999 | 9.46889 | 40262 ft | 473 kts | 310° |
| 2026-04-30 13:38 | 48.82754 | 9.35279 | 40260 ft | 473 kts | 310° |
| 2026-04-30 13:39 | 48.90647 | 9.19278 | 40276 ft | 475 kts | 310° |
| 2026-04-30 13:40 | 48.96528 | 9.07293 | 40289 ft | 478 kts | 310° |
| 2026-04-30 13:40 | 49.00493 | 8.99182 | 40297 ft | 479 kts | 310° |
| 2026-04-30 13:41 | 49.04374 | 8.91218 | 40305 ft | 481 kts | 310° |
| 2026-04-30 13:41 | 49.08377 | 8.82978 | 40311 ft | 481 kts | 310° |
| 2026-04-30 13:42 | 49.12366 | 8.74745 | 40309 ft | 482 kts | 309° |
| 2026-04-30 13:42 | 49.17680 | 8.63733 | 40316 ft | 482 kts | 309° |
| 2026-04-30 13:43 | 49.21724 | 8.55323 | 40320 ft | 482 kts | 309° |
| 2026-04-30 13:43 | 49.25689 | 8.47054 | 40324 ft | 482 kts | 309° |
| 2026-04-30 13:44 | 49.29663 | 8.38740 | 40327 ft | 482 kts | 309° |
| 2026-04-30 13:44 | 49.33613 | 8.30449 | 40330 ft | 483 kts | 309° |
| 2026-04-30 13:45 | 49.39519 | 8.18004 | 40325 ft | 483 kts | 309° |
| 2026-04-30 13:46 | 49.43404 | 8.09786 | 40321 ft | 483 kts | 309° |
| 2026-04-30 13:46 | 49.47312 | 8.01494 | 40307 ft | 483 kts | 308° |
| 2026-04-30 13:47 | 49.51208 | 7.93202 | 40302 ft | 483 kts | 308° |
| 2026-04-30 13:47 | 49.55019 | 7.85066 | 40302 ft | 484 kts | 308° |
| 2026-04-30 13:48 | 49.58843 | 7.76876 | 40302 ft | 484 kts | 308° |
| 2026-04-30 13:48 | 49.62838 | 7.68295 | 40297 ft | 484 kts | 308° |
| 2026-04-30 13:49 | 49.66757 | 7.59848 | 40300 ft | 485 kts | 308° |
| 2026-04-30 13:49 | 49.70802 | 7.51103 | 40320 ft | 484 kts | 308° |
| 2026-04-30 13:50 | 49.74667 | 7.42718 | 40338 ft | 485 kts | 308° |
| 2026-04-30 13:50 | 49.80582 | 7.29834 | 40326 ft | 485 kts | 308° |
| 2026-04-30 13:51 | 49.83829 | 7.22737 | 40326 ft | 486 kts | 308° |
| 2026-04-30 13:51 | 49.87636 | 7.14391 | 40329 ft | 486 kts | 308° |
| 2026-04-30 13:52 | 49.91560 | 7.05761 | 40338 ft | 487 kts | 308° |
| 2026-04-30 13:52 | 49.95592 | 6.96863 | 40298 ft | 488 kts | 307° |
| 2026-04-30 13:53 | 49.99604 | 6.87980 | 40301 ft | 489 kts | 307° |
| 2026-04-30 13:53 | 50.03489 | 6.79349 | 40312 ft | 490 kts | 307° |
| 2026-04-30 13:54 | 50.07413 | 6.70605 | 40311 ft | 490 kts | 307° |
| 2026-04-30 13:54 | 50.11319 | 6.61868 | 40308 ft | 490 kts | 307° |
| 2026-04-30 13:55 | 50.15258 | 6.53034 | 40302 ft | 490 kts | 307° |
| 2026-04-30 13:55 | 50.19052 | 6.44170 | 40295 ft | 491 kts | 302° |
| 2026-04-30 13:56 | 50.22338 | 6.34771 | 40294 ft | 492 kts | 301° |
| 2026-04-30 13:56 | 50.25152 | 6.26821 | 40289 ft | 492 kts | 301° |
| 2026-04-30 13:57 | 50.28446 | 6.17459 | 40293 ft | 492 kts | 301° |
| 2026-04-30 13:57 | 50.31752 | 6.08211 | 40287 ft | 491 kts | 303° |
| 2026-04-30 13:58 | 50.37131 | 5.94632 | 40281 ft | 492 kts | 303° |
| 2026-04-30 13:59 | 50.40660 | 5.85563 | 40278 ft | 492 kts | 303° |
| 2026-04-30 13:59 | 50.44218 | 5.76334 | 40282 ft | 493 kts | 303° |
| 2026-04-30 14:00 | 50.47679 | 5.67316 | 40286 ft | 494 kts | 302° |
| 2026-04-30 14:00 | 50.53177 | 5.52933 | 40295 ft | 494 kts | 302° |
| 2026-04-30 14:01 | 50.56149 | 5.45124 | 40299 ft | 494 kts | 302° |
| 2026-04-30 14:01 | 50.59641 | 5.35916 | 40295 ft | 494 kts | 302° |
| 2026-04-30 14:02 | 50.63150 | 5.26634 | 40296 ft | 494 kts | 302° |
| 2026-04-30 14:02 | 50.66677 | 5.17269 | 40286 ft | 494 kts | 302° |
| 2026-04-30 14:03 | 50.70185 | 5.07920 | 40279 ft | 494 kts | 302° |
| 2026-04-30 14:03 | 50.73674 | 4.98590 | 40270 ft | 494 kts | 302° |
| 2026-04-30 14:04 | 50.77136 | 4.89298 | 40271 ft | 494 kts | 301° |
| 2026-04-30 14:04 | 50.80621 | 4.79909 | 40276 ft | 495 kts | 301° |
| 2026-04-30 14:05 | 50.84145 | 4.70382 | 40285 ft | 496 kts | 301° |
| 2026-04-30 14:05 | 50.87648 | 4.60875 | 40291 ft | 496 kts | 301° |
| 2026-04-30 14:06 | 50.92931 | 4.46695 | 40290 ft | 497 kts | 302° |
| 2026-04-30 14:07 | 50.98353 | 4.32675 | 40288 ft | 498 kts | 302° |
| 2026-04-30 14:08 | 51.03752 | 4.18538 | 40281 ft | 499 kts | 302° |
| 2026-04-30 14:08 | 51.09111 | 4.04409 | 40277 ft | 499 kts | 301° |
| 2026-04-30 14:09 | 51.12684 | 3.94948 | 40266 ft | 499 kts | 301° |
| 2026-04-30 14:10 | 51.18085 | 3.80578 | 40249 ft | 499 kts | 301° |
| 2026-04-30 14:10 | 51.21654 | 3.71037 | 40256 ft | 499 kts | 301° |
| 2026-04-30 14:11 | 51.24644 | 3.63016 | 40253 ft | 499 kts | 301° |
| 2026-04-30 14:11 | 51.26890 | 3.56973 | 40249 ft | 499 kts | 301° |
| 2026-04-30 14:12 | 51.27731 | 3.54706 | 40256 ft | 499 kts | 301° |
| 2026-04-30 14:12 | 51.30847 | 3.46286 | 40258 ft | 499 kts | 300° |
| 2026-04-30 14:13 | 51.34248 | 3.36838 | 40257 ft | 498 kts | 296° |
| 2026-04-30 14:13 | 51.36905 | 3.26607 | 40254 ft | 497 kts | 290° |
| 2026-04-30 14:14 | 51.39369 | 3.16218 | 40254 ft | 496 kts | 290° |
| 2026-04-30 14:14 | 51.41866 | 3.05701 | 40252 ft | 495 kts | 290° |
| 2026-04-30 14:15 | 51.44291 | 2.95393 | 40252 ft | 495 kts | 290° |
| 2026-04-30 14:15 | 51.46721 | 2.84994 | 40251 ft | 494 kts | 289° |
| 2026-04-30 14:16 | 51.49114 | 2.74708 | 40253 ft | 494 kts | 289° |
| 2026-04-30 14:16 | 51.51502 | 2.64390 | 40253 ft | 493 kts | 289° |
| 2026-04-30 14:17 | 51.53880 | 2.54065 | 40247 ft | 493 kts | 289° |
| 2026-04-30 14:17 | 51.56246 | 2.43739 | 40251 ft | 492 kts | 289° |
| 2026-04-30 14:18 | 51.58602 | 2.33398 | 40249 ft | 492 kts | 289° |
| 2026-04-30 14:18 | 51.62122 | 2.17914 | 40249 ft | 491 kts | 289° |
| 2026-04-30 14:19 | 51.65618 | 2.02401 | 40249 ft | 491 kts | 288° |
| 2026-04-30 14:20 | 51.67935 | 1.92037 | 40251 ft | 491 kts | 288° |
| 2026-04-30 14:20 | 51.71305 | 1.76887 | 39884 ft | 462 kts | 288° |
| 2026-04-30 14:21 | 51.72375 | 1.72049 | 39402 ft | 454 kts | 288° |
| 2026-04-30 14:21 | 51.73425 | 1.67267 | 38829 ft | 448 kts | 286° |
| 2026-04-30 14:21 | 51.74422 | 1.57598 | 37474 ft | 434 kts | 267° |
| 2026-04-30 14:22 | 51.74228 | 1.52778 | 36851 ft | 426 kts | 260° |
| 2026-04-30 14:22 | 51.73598 | 1.43363 | 35663 ft | 417 kts | 261° |
| 2026-04-30 14:22 | 51.73307 | 1.38727 | 35087 ft | 413 kts | 261° |
| 2026-04-30 14:23 | 51.72717 | 1.29635 | 33925 ft | 406 kts | 260° |
| 2026-04-30 14:23 | 51.72124 | 1.20698 | 32769 ft | 396 kts | 260° |
| 2026-04-30 14:24 | 51.71567 | 1.11970 | 31661 ft | 388 kts | 260° |
| 2026-04-30 14:24 | 51.71267 | 1.07673 | 31111 ft | 384 kts | 259° |
| 2026-04-30 14:25 | 51.70767 | 1.00535 | 30238 ft | 377 kts | 259° |
| 2026-04-30 14:25 | 51.70189 | 0.92197 | 29127 ft | 368 kts | 259° |
| 2026-04-30 14:26 | 51.69625 | 0.84080 | 28116 ft | 359 kts | 259° |
| 2026-04-30 14:26 | 51.69347 | 0.80101 | 27627 ft | 355 kts | 259° |
| 2026-04-30 14:26 | 51.68801 | 0.72362 | 26685 ft | 347 kts | 259° |
| 2026-04-30 14:27 | 51.68524 | 0.68458 | 26229 ft | 343 kts | 259° |
| 2026-04-30 14:27 | 51.68251 | 0.64632 | 25796 ft | 339 kts | 259° |
| 2026-04-30 14:27 | 51.67982 | 0.60885 | 25332 ft | 336 kts | 259° |
| 2026-04-30 14:28 | 51.67447 | 0.53471 | 24500 ft | 329 kts | 259° |
| 2026-04-30 14:28 | 51.67181 | 0.49821 | 24092 ft | 326 kts | 259° |
| 2026-04-30 14:28 | 51.66919 | 0.46212 | 23672 ft | 323 kts | 259° |
| 2026-04-30 14:28 | 51.66661 | 0.42696 | 23292 ft | 317 kts | 259° |
| 2026-04-30 14:29 | 51.66140 | 0.35648 | 22384 ft | 311 kts | 259° |
| 2026-04-30 14:29 | 51.65631 | 0.28802 | 21504 ft | 305 kts | 259° |
| 2026-04-30 14:30 | 51.64878 | 0.18777 | 20267 ft | 295 kts | 259° |
| 2026-04-30 14:31 | 51.64432 | 0.12297 | 19403 ft | 293 kts | 269° |
| 2026-04-30 14:31 | 51.64744 | 0.05809 | 18628 ft | 288 kts | 271° |
| 2026-04-30 14:31 | 51.64911 | 0.02602 | 18198 ft | 285 kts | 271° |
| 2026-04-30 14:32 | 51.64853 | -0.03624 | 17239 ft | 277 kts | 258° |
| 2026-04-30 14:32 | 51.64596 | -0.06685 | 16899 ft | 274 kts | 258° |
| 2026-04-30 14:32 | 51.64344 | -0.09716 | 16476 ft | 272 kts | 258° |
| 2026-04-30 14:33 | 51.64102 | -0.12724 | 16060 ft | 271 kts | 258° |
| 2026-04-30 14:33 | 51.63634 | -0.18711 | 15210 ft | 268 kts | 258° |
| 2026-04-30 14:33 | 51.63406 | -0.21673 | 14798 ft | 266 kts | 258° |
| 2026-04-30 14:34 | 51.63178 | -0.24611 | 14381 ft | 265 kts | 258° |
| 2026-04-30 14:34 | 51.62943 | -0.27586 | 13751 ft | 273 kts | 258° |
| 2026-04-30 14:34 | 51.62697 | -0.30674 | 12866 ft | 286 kts | 258° |
| 2026-04-30 14:34 | 51.62525 | -0.32840 | 12298 ft | 295 kts | 259° |
| 2026-04-30 14:35 | 51.61897 | -0.40773 | 10176 ft | 317 kts | 259° |
| 2026-04-30 14:35 | 51.61612 | -0.44374 | 9267 ft | 324 kts | 259° |
| 2026-04-30 14:35 | 51.61326 | -0.47989 | 8531 ft | 324 kts | 259° |
| 2026-04-30 14:36 | 51.61042 | -0.51561 | 7900 ft | 319 kts | 259° |
| 2026-04-30 14:36 | 51.60761 | -0.55076 | 7285 ft | 315 kts | 259° |
| 2026-04-30 14:36 | 51.60484 | -0.58521 | 6754 ft | 309 kts | 259° |
| 2026-04-30 14:36 | 51.60212 | -0.61919 | 6250 ft | 301 kts | 258° |
| 2026-04-30 14:37 | 51.59943 | -0.65238 | 5745 ft | 294 kts | 258° |
| 2026-04-30 14:37 | 51.59784 | -0.67389 | 5406 ft | 291 kts | 259° |
| 2026-04-30 14:37 | 51.59514 | -0.71675 | 4733 ft | 282 kts | 255° |
| 2026-04-30 14:37 | 51.58859 | -0.74542 | 4250 ft | 269 kts | 229° |
| 2026-04-30 14:38 | 51.57544 | -0.76506 | 3758 ft | 258 kts | 202° |
| 2026-04-30 14:38 | 51.55883 | -0.77429 | 3279 ft | 248 kts | 190° |
| 2026-04-30 14:38 | 51.54266 | -0.78073 | 3030 ft | 230 kts | 189° |
| 2026-04-30 14:38 | 51.52759 | -0.78702 | 2983 ft | 215 kts | 190° |
| 2026-04-30 14:39 | 51.51366 | -0.79343 | 3020 ft | 202 kts | 190° |
| 2026-04-30 14:39 | 51.50060 | -0.79752 | 2994 ft | 176 kts | 170° |
| 2026-04-30 14:39 | 51.49034 | -0.79056 | 3002 ft | 156 kts | 139° |
| 2026-04-30 14:40 | 51.47879 | -0.76244 | 3019 ft | 155 kts | 108° |
| 2026-04-30 14:40 | 51.47713 | -0.74536 | 3010 ft | 156 kts | 95° |
| 2026-04-30 14:40 | 51.47709 | -0.72797 | 2999 ft | 155 kts | 92° |
| 2026-04-30 14:40 | 51.47706 | -0.71074 | 2858 ft | 155 kts | 92° |
| 2026-04-30 14:41 | 51.47706 | -0.69336 | 2659 ft | 154 kts | 92° |
| 2026-04-30 14:41 | 51.47708 | -0.67641 | 2464 ft | 150 kts | 92° |
| 2026-04-30 14:41 | 51.47703 | -0.65971 | 2288 ft | 151 kts | 92° |
| 2026-04-30 14:41 | 51.47717 | -0.64193 | 2036 ft | 147 kts | 92° |
| 2026-04-30 14:42 | 51.47711 | -0.62580 | 1821 ft | 145 kts | 91° |
| 2026-04-30 14:42 | 51.47723 | -0.60956 | 1644 ft | 147 kts | 92° |
| 2026-04-30 14:42 | 51.47716 | -0.59309 | 1448 ft | 150 kts | 92° |
| 2026-04-30 14:42 | 51.47730 | -0.57621 | 1231 ft | 150 kts | 91° |
| 2026-04-30 14:43 | 51.47735 | -0.55982 | 1031 ft | 143 kts | 91° |
| 2026-04-30 14:43 | 51.47732 | -0.54361 | 835 ft | 147 kts | 91° |
| 2026-04-30 14:43 | 51.47739 | -0.52739 | 638 ft | 144 kts | 91° |
| 2026-04-30 14:43 | 51.47740 | -0.51132 | 446 ft | 145 kts | 89° |
| 2026-04-30 14:44 | 51.47747 | -0.49527 | 254 ft | 142 kts | 89° |
| 2026-04-30 14:44 | 51.47751 | -0.47949 | 94 ft | 139 kts | 89° |
| 2026-04-30 14:44 | 51.47759 | -0.46811 | 97 ft | 53 kts | 87° |
| 2026-04-30 14:44 | 51.47763 | -0.46512 | 95 ft | 28 kts | 89° |
| 2026-04-30 14:45 | 51.47761 | -0.46216 | 94 ft | 25 kts | 92° |
| 2026-04-30 14:45 | 51.47759 | -0.45922 | 93 ft | 29 kts | 88° |
| 2026-04-30 14:45 | 51.47759 | -0.45600 | 93 ft | 9 kts | 97° |
| 2026-04-30 14:45 | 51.47707 | -0.45492 | 95 ft | 15 kts | 175° |
| 2026-04-30 14:46 | 51.47607 | -0.45469 | 92 ft | 14 kts | 176° |
| 2026-04-30 14:46 | 51.47518 | -0.45520 | 95 ft | 13 kts | 253° |
| 2026-04-30 14:46 | 51.47517 | -0.45635 | 93 ft | 18 kts | 268° |
| 2026-04-30 14:46 | 51.47515 | -0.45857 | 92 ft | 19 kts | 270° |
| 2026-04-30 14:47 | 51.47517 | -0.46181 | 92 ft | 22 kts | 270° |
| 2026-04-30 14:47 | 51.47516 | -0.46445 | 93 ft | 23 kts | 262° |
| 2026-04-30 14:47 | 51.47513 | -0.46490 | 95 ft | 5 kts | 276° |
| 2026-04-30 14:47 | 51.47514 | -0.46571 | 95 ft | 10 kts | 268° |
| 2026-04-30 14:48 | 51.47514 | -0.46644 | 95 ft | 0 kts | 269° |
| 2026-04-30 14:48 | 51.47512 | -0.46695 | 95 ft | 9 kts | 256° |
| 2026-04-30 14:48 | 51.47452 | -0.46752 | 92 ft | 14 kts | 179° |
| 2026-04-30 14:49 | 51.47340 | -0.46731 | 92 ft | 17 kts | 187° |
| 2026-04-30 14:49 | 51.47229 | -0.46724 | 92 ft | 15 kts | 179° |
| 2026-04-30 14:49 | 51.47155 | -0.46727 | 92 ft | 17 kts | 183° |
| 2026-04-30 14:49 | 51.47007 | -0.46680 | 94 ft | 16 kts | 150° |
| 2026-04-30 14:50 | 51.46882 | -0.46546 | 95 ft | 0 kts | 145° |
| 2026-04-30 14:51 | 51.46833 | -0.46489 | 96 ft | 9 kts | 147° |
| 2026-04-30 14:51 | 51.46773 | -0.46426 | 96 ft | 7 kts | 134° |
| 2026-04-30 14:51 | 51.46745 | -0.46274 | 95 ft | 12 kts | 93° |
| 2026-04-30 14:52 | 51.46743 | -0.46138 | 93 ft | 12 kts | 91° |
| 2026-04-30 14:52 | 51.46748 | -0.45866 | 96 ft | 14 kts | 88° |
| 2026-04-30 14:52 | 51.46749 | -0.45712 | 95 ft | 14 kts | 90° |
| 2026-04-30 14:53 | 51.46791 | -0.45560 | 94 ft | 1 kts | 25° |
| 2026-04-30 14:53 | 51.46811 | -0.45551 | 94 ft | 3 kts | 8° |
| 2026-04-30 14:54 | 51.46824 | -0.45550 | 94 ft | 0 kts | 2° |